<?xml version='1.0' encoding='UTF-8'?><gpx version="1.1" creator="JPX - https://github.com/jenetics/jpx" xmlns="http://www.topografix.com/GPX/1/1"><trk><trkseg><trkpt lat="45.71271423014705" lon="9.246509494964053"><ele>260.00000000000006</ele><time>2026-04-10T17:59:33.981Z</time></trkpt><trkpt lat="45.712647705894845" lon="9.246539366727202"><ele>260.0</ele><time>2026-04-10T18:00:06.98Z</time></trkpt><trkpt lat="45.71258590079285" lon="9.246560445684578"><ele>260.0</ele><time>2026-04-10T18:00:18.98Z</time></trkpt><trkpt lat="45.71252665045741" lon="9.246637960057932"><ele>260.0</ele><time>2026-04-10T18:00:27.98Z</time></trkpt><trkpt lat="45.71251076257483" lon="9.24672718169455"><ele>260.0</ele><time>2026-04-10T18:00:34.98Z</time></trkpt><trkpt lat="45.71249486507391" lon="9.246819746512106"><ele>260.00000000000006</ele><time>2026-04-10T18:00:43.982Z</time></trkpt><trkpt lat="45.71248638629452" lon="9.24691771299082"><ele>260.0</ele><time>2026-04-10T18:00:49.982Z</time></trkpt><trkpt lat="45.7124863515513" lon="9.247009968229465"><ele>260.00000000000006</ele><time>2026-04-10T18:00:56.979Z</time></trkpt><trkpt lat="45.71251291828752" lon="9.247113455614109"><ele>260.0</ele><time>2026-04-10T18:01:14.975Z</time></trkpt><trkpt lat="45.71253484400597" lon="9.247216394616405"><ele>260.0</ele><time>2026-04-10T18:01:23.974Z</time></trkpt><trkpt lat="45.71252779324698" lon="9.247316069033033"><ele>260.0</ele><time>2026-04-10T18:02:50.975Z</time></trkpt><trkpt lat="45.71247391387613" lon="9.247260762830797"><ele>260.0</ele><time>2026-04-10T18:05:29.975Z</time></trkpt><trkpt lat="45.71243078052291" lon="9.247167179537184"><ele>260.00000000000006</ele><time>2026-04-10T18:06:24.974Z</time></trkpt><trkpt lat="45.71238706315749" lon="9.247090967246555"><ele>260.0</ele><time>2026-04-10T18:06:25.974Z</time></trkpt><trkpt lat="45.71232122827034" lon="9.246988924814094"><ele>260.0</ele><time>2026-04-10T18:06:27.974Z</time></trkpt><trkpt lat="45.71223316758217" lon="9.246906338958796"><ele>260.0</ele><time>2026-04-10T18:06:29.974Z</time></trkpt><trkpt lat="45.71213210293404" lon="9.24681458615148"><ele>260.0</ele><time>2026-04-10T18:06:31.974Z</time></trkpt><trkpt lat="45.712070708529744" lon="9.246778791805097"><ele>260.0</ele><time>2026-04-10T18:06:33.974Z</time></trkpt><trkpt lat="45.71199488580222" lon="9.246716695262005"><ele>260.0</ele><time>2026-04-10T18:06:36.973Z</time></trkpt><trkpt lat="45.711935184729725" lon="9.246597438322382"><ele>260.2</ele><time>2026-04-10T18:06:39.973Z</time></trkpt><trkpt lat="45.71186363827767" lon="9.246538060863712"><ele>260.4</ele><time>2026-04-10T18:06:41.973Z</time></trkpt><trkpt lat="45.711798079313965" lon="9.246469237222973"><ele>260.6</ele><time>2026-04-10T18:06:43.973Z</time></trkpt><trkpt lat="45.71170967557847" lon="9.246397553857394"><ele>260.8</ele><time>2026-04-10T18:06:45.973Z</time></trkpt><trkpt lat="45.711643969903996" lon="9.246314700011126"><ele>261.0</ele><time>2026-04-10T18:06:47.973Z</time></trkpt><trkpt lat="45.7115557538514" lon="9.246249712237713"><ele>262.0</ele><time>2026-04-10T18:06:49.973Z</time></trkpt><trkpt lat="45.711455328822936" lon="9.246221259086349"><ele>263.0</ele><time>2026-04-10T18:06:51.973Z</time></trkpt><trkpt lat="45.711382800914784" lon="9.246190575649578"><ele>264.0</ele><time>2026-04-10T18:06:53.973Z</time></trkpt><trkpt lat="45.71130775512503" lon="9.246163578637699"><ele>265.0</ele><time>2026-04-10T18:06:55.973Z</time></trkpt><trkpt lat="45.7112317373461" lon="9.246129268607744"><ele>266.0</ele><time>2026-04-10T18:06:57.973Z</time></trkpt><trkpt lat="45.71116348110729" lon="9.246086566611954"><ele>267.0</ele><time>2026-04-10T18:06:59.973Z</time></trkpt><trkpt lat="45.711083137227845" lon="9.24606202705039"><ele>267.5</ele><time>2026-04-10T18:07:01.976Z</time></trkpt><trkpt lat="45.71100421048142" lon="9.246030742732476"><ele>268.0</ele><time>2026-04-10T18:07:03.977Z</time></trkpt><trkpt lat="45.7109137757547" lon="9.245998543089996"><ele>268.5</ele><time>2026-04-10T18:07:05.977Z</time></trkpt><trkpt lat="45.71082422127311" lon="9.245959907120765"><ele>269.0</ele><time>2026-04-10T18:07:07.976Z</time></trkpt><trkpt lat="45.710761328027424" lon="9.245923330371008"><ele>269.5</ele><time>2026-04-10T18:07:09.977Z</time></trkpt><trkpt lat="45.710698042747495" lon="9.245867387544036"><ele>270.0</ele><time>2026-04-10T18:07:11.977Z</time></trkpt><trkpt lat="45.71064284600181" lon="9.245799272470208"><ele>270.0</ele><time>2026-04-10T18:07:13.976Z</time></trkpt><trkpt lat="45.71057373338475" lon="9.245713228710883"><ele>270.0</ele><time>2026-04-10T18:07:16.976Z</time></trkpt><trkpt lat="45.7105057934065" lon="9.245663431665992"><ele>270.0</ele><time>2026-04-10T18:07:19.976Z</time></trkpt><trkpt lat="45.71043350574636" lon="9.245601060177199"><ele>270.0</ele><time>2026-04-10T18:07:21.976Z</time></trkpt><trkpt lat="45.710362734307346" lon="9.245564716019574"><ele>270.0</ele><time>2026-04-10T18:07:23.976Z</time></trkpt><trkpt lat="45.7102848293425" lon="9.24553666180381"><ele>270.0</ele><time>2026-04-10T18:07:25.976Z</time></trkpt><trkpt lat="45.71021747176586" lon="9.24548304091994"><ele>271.0</ele><time>2026-04-10T18:07:27.976Z</time></trkpt><trkpt lat="45.71016107432653" lon="9.245405746823103"><ele>272.0</ele><time>2026-04-10T18:07:29.976Z</time></trkpt><trkpt lat="45.710092807188346" lon="9.24535074431722"><ele>273.0</ele><time>2026-04-10T18:07:31.976Z</time></trkpt><trkpt lat="45.71003245890791" lon="9.245281671953608"><ele>274.0</ele><time>2026-04-10T18:07:33.976Z</time></trkpt><trkpt lat="45.709968496209854" lon="9.245218499448015"><ele>275.0</ele><time>2026-04-10T18:07:35.976Z</time></trkpt><trkpt lat="45.70990804134727" lon="9.245176334601874"><ele>276.0</ele><time>2026-04-10T18:07:37.976Z</time></trkpt><trkpt lat="45.70984224433282" lon="9.245124564058413"><ele>276.0</ele><time>2026-04-10T18:07:39.976Z</time></trkpt><trkpt lat="45.70979313811203" lon="9.245057929232992"><ele>276.0</ele><time>2026-04-10T18:07:41.976Z</time></trkpt><trkpt lat="45.70973917336305" lon="9.244984911816555"><ele>276.0</ele><time>2026-04-10T18:07:43.976Z</time></trkpt><trkpt lat="45.709678205881936" lon="9.244926669288118"><ele>276.0</ele><time>2026-04-10T18:07:45.975Z</time></trkpt><trkpt lat="45.70961960262672" lon="9.244843169538749"><ele>276.0</ele><time>2026-04-10T18:07:47.975Z</time></trkpt><trkpt lat="45.709561600129376" lon="9.244766618260199"><ele>276.0</ele><time>2026-04-10T18:07:49.975Z</time></trkpt><trkpt lat="45.709504122279164" lon="9.244682782898495"><ele>276.0</ele><time>2026-04-10T18:07:51.975Z</time></trkpt><trkpt lat="45.709448184498534" lon="9.244603402666005"><ele>276.0</ele><time>2026-04-10T18:07:53.975Z</time></trkpt><trkpt lat="45.70939272212209" lon="9.244519107850412"><ele>276.0</ele><time>2026-04-10T18:07:55.975Z</time></trkpt><trkpt lat="45.70934654500364" lon="9.24443670134067"><ele>276.0</ele><time>2026-04-10T18:07:57.975Z</time></trkpt><trkpt lat="45.709297089823686" lon="9.24434947551291"><ele>276.0</ele><time>2026-04-10T18:07:59.975Z</time></trkpt><trkpt lat="45.70925459381185" lon="9.24426419712277"><ele>276.0</ele><time>2026-04-10T18:08:01.975Z</time></trkpt><trkpt lat="45.70920235120735" lon="9.244205344684095"><ele>276.0</ele><time>2026-04-10T18:08:04.975Z</time></trkpt><trkpt lat="45.709169760115145" lon="9.244128174692506"><ele>276.0</ele><time>2026-04-10T18:08:06.975Z</time></trkpt><trkpt lat="45.70913704441272" lon="9.244006136315564"><ele>276.0</ele><time>2026-04-10T18:08:09.975Z</time></trkpt><trkpt lat="45.709098482702714" lon="9.243898784243926"><ele>276.0</ele><time>2026-04-10T18:08:12.975Z</time></trkpt><trkpt lat="45.709061739311316" lon="9.243789080695777"><ele>276.0</ele><time>2026-04-10T18:08:15.975Z</time></trkpt><trkpt lat="45.709016832215994" lon="9.243673981539015"><ele>276.0</ele><time>2026-04-10T18:08:18.975Z</time></trkpt><trkpt lat="45.70896389832598" lon="9.24357287327452"><ele>276.5</ele><time>2026-04-10T18:08:21.975Z</time></trkpt><trkpt lat="45.70892372003295" lon="9.243472369714782"><ele>277.0</ele><time>2026-04-10T18:08:24.975Z</time></trkpt><trkpt lat="45.70887326052854" lon="9.243396205616786"><ele>277.5</ele><time>2026-04-10T18:08:27.975Z</time></trkpt><trkpt lat="45.70883301186194" lon="9.243278028653204"><ele>278.0</ele><time>2026-04-10T18:08:30.975Z</time></trkpt><trkpt lat="45.708813753627034" lon="9.2431904107283"><ele>278.5</ele><time>2026-04-10T18:08:32.975Z</time></trkpt><trkpt lat="45.708795486262886" lon="9.243098419864298"><ele>279.0</ele><time>2026-04-10T18:08:34.975Z</time></trkpt><trkpt lat="45.7087734639086" lon="9.242977374883717"><ele>279.1666666666667</ele><time>2026-04-10T18:08:37.975Z</time></trkpt><trkpt lat="45.70874995324126" lon="9.242870379307206"><ele>279.3333333333333</ele><time>2026-04-10T18:08:40.974Z</time></trkpt><trkpt lat="45.70871659263525" lon="9.242770418898916"><ele>279.5</ele><time>2026-04-10T18:08:43.974Z</time></trkpt><trkpt lat="45.70868653898919" lon="9.242650367231587"><ele>279.66666666666663</ele><time>2026-04-10T18:08:46.974Z</time></trkpt><trkpt lat="45.70863905642644" lon="9.242549079275403"><ele>279.8333333333333</ele><time>2026-04-10T18:08:49.974Z</time></trkpt><trkpt lat="45.70857898966695" lon="9.242505240831553"><ele>280.0</ele><time>2026-04-10T18:08:51.974Z</time></trkpt><trkpt lat="45.7085077542439" lon="9.242480370945682"><ele>280.0</ele><time>2026-04-10T18:08:53.974Z</time></trkpt><trkpt lat="45.70844275847277" lon="9.242469422488462"><ele>280.0</ele><time>2026-04-10T18:08:55.974Z</time></trkpt><trkpt lat="45.7083684291881" lon="9.24240118887466"><ele>280.0</ele><time>2026-04-10T18:08:58.974Z</time></trkpt><trkpt lat="45.70831213157975" lon="9.242339050135351"><ele>280.0</ele><time>2026-04-10T18:09:00.974Z</time></trkpt><trkpt lat="45.70824684687023" lon="9.242270643134464"><ele>280.0</ele><time>2026-04-10T18:09:03.974Z</time></trkpt><trkpt lat="45.70817706378163" lon="9.242229256521856"><ele>280.0</ele><time>2026-04-10T18:09:05.974Z</time></trkpt><trkpt lat="45.70810113262822" lon="9.242187867278114"><ele>280.16666666666663</ele><time>2026-04-10T18:09:07.977Z</time></trkpt><trkpt lat="45.708026686719755" lon="9.242149906823778"><ele>280.3333333333333</ele><time>2026-04-10T18:09:09.977Z</time></trkpt><trkpt lat="45.70794818137785" lon="9.242104553291417"><ele>280.5</ele><time>2026-04-10T18:09:11.977Z</time></trkpt><trkpt lat="45.70788239703653" lon="9.24206420338709"><ele>280.6666666666667</ele><time>2026-04-10T18:09:13.977Z</time></trkpt><trkpt lat="45.70780885635482" lon="9.24204546409703"><ele>280.83333333333337</ele><time>2026-04-10T18:09:15.977Z</time></trkpt><trkpt lat="45.70773343835435" lon="9.242034347175323"><ele>281.0</ele><time>2026-04-10T18:09:17.977Z</time></trkpt><trkpt lat="45.70765769520097" lon="9.242009411928251"><ele>281.0</ele><time>2026-04-10T18:09:19.977Z</time></trkpt><trkpt lat="45.70757931306568" lon="9.242005591790976"><ele>281.0</ele><time>2026-04-10T18:09:21.977Z</time></trkpt><trkpt lat="45.70750701161616" lon="9.242004606239405"><ele>281.0</ele><time>2026-04-10T18:09:23.977Z</time></trkpt><trkpt lat="45.70743278515146" lon="9.242004026074197"><ele>281.0</ele><time>2026-04-10T18:09:25.977Z</time></trkpt><trkpt lat="45.70735371384788" lon="9.242017423071221"><ele>281.0</ele><time>2026-04-10T18:09:27.977Z</time></trkpt><trkpt lat="45.70727495743976" lon="9.242052593896547"><ele>281.0</ele><time>2026-04-10T18:09:29.977Z</time></trkpt><trkpt lat="45.707188768844226" lon="9.242091976346021"><ele>281.0</ele><time>2026-04-10T18:09:31.977Z</time></trkpt><trkpt lat="45.70709257016806" lon="9.242121354638986"><ele>281.0</ele><time>2026-04-10T18:09:33.977Z</time></trkpt><trkpt lat="45.7070150993811" lon="9.24214410394146"><ele>281.0</ele><time>2026-04-10T18:09:35.977Z</time></trkpt><trkpt lat="45.70693789912824" lon="9.242172704764805"><ele>281.0</ele><time>2026-04-10T18:09:37.977Z</time></trkpt><trkpt lat="45.706861476694456" lon="9.24218834307099"><ele>281.0</ele><time>2026-04-10T18:09:39.977Z</time></trkpt><trkpt lat="45.70678590237489" lon="9.24221077603326"><ele>281.0</ele><time>2026-04-10T18:09:41.977Z</time></trkpt><trkpt lat="45.70671787084138" lon="9.242228112994008"><ele>280.83333333333337</ele><time>2026-04-10T18:09:43.977Z</time></trkpt><trkpt lat="45.70663925052542" lon="9.242235030213267"><ele>280.6666666666667</ele><time>2026-04-10T18:09:45.977Z</time></trkpt><trkpt lat="45.70656920860548" lon="9.24224166333505"><ele>280.5</ele><time>2026-04-10T18:09:47.977Z</time></trkpt><trkpt lat="45.706505371432506" lon="9.242219255133872"><ele>280.3333333333333</ele><time>2026-04-10T18:09:49.977Z</time></trkpt><trkpt lat="45.70643966459437" lon="9.242216605402165"><ele>280.16666666666663</ele><time>2026-04-10T18:09:51.977Z</time></trkpt><trkpt lat="45.70635667099687" lon="9.242210892222134"><ele>280.0</ele><time>2026-04-10T18:09:54.977Z</time></trkpt><trkpt lat="45.706270033827685" lon="9.24219920554892"><ele>280.0</ele><time>2026-04-10T18:09:57.977Z</time></trkpt><trkpt lat="45.70618173565157" lon="9.242149595169636"><ele>280.0</ele><time>2026-04-10T18:10:00.977Z</time></trkpt><trkpt lat="45.706096548552125" lon="9.242106594331053"><ele>280.0</ele><time>2026-04-10T18:10:03.977Z</time></trkpt><trkpt lat="45.70601785759609" lon="9.2420621947408"><ele>280.0</ele><time>2026-04-10T18:10:06.977Z</time></trkpt><trkpt lat="45.70594630435658" lon="9.242002392192848"><ele>280.0</ele><time>2026-04-10T18:10:09.977Z</time></trkpt><trkpt lat="45.70586565799387" lon="9.241972053665082"><ele>280.0</ele><time>2026-04-10T18:10:12.976Z</time></trkpt><trkpt lat="45.70578451595299" lon="9.24199690245701"><ele>280.14285714285717</ele><time>2026-04-10T18:10:14.976Z</time></trkpt><trkpt lat="45.7057233405038" lon="9.24205620703282"><ele>280.2857142857143</ele><time>2026-04-10T18:10:16.976Z</time></trkpt><trkpt lat="45.7056788928876" lon="9.242156095496101"><ele>280.42857142857144</ele><time>2026-04-10T18:10:19.976Z</time></trkpt><trkpt lat="45.705628330240465" lon="9.242222502048163"><ele>280.57142857142856</ele><time>2026-04-10T18:10:21.976Z</time></trkpt><trkpt lat="45.705571838784266" lon="9.242268994795168"><ele>280.7142857142857</ele><time>2026-04-10T18:10:23.976Z</time></trkpt><trkpt lat="45.70552583863253" lon="9.242367402524652"><ele>280.8571428571429</ele><time>2026-04-10T18:10:26.976Z</time></trkpt><trkpt lat="45.7054894679398" lon="9.242441311469712"><ele>281.0</ele><time>2026-04-10T18:10:28.976Z</time></trkpt><trkpt lat="45.705444900231704" lon="9.242524503907525"><ele>281.0</ele><time>2026-04-10T18:10:31.976Z</time></trkpt><trkpt lat="45.70538390353509" lon="9.242631510034405"><ele>281.0</ele><time>2026-04-10T18:10:34.976Z</time></trkpt><trkpt lat="45.70534196720765" lon="9.24273603599731"><ele>281.0</ele><time>2026-04-10T18:10:37.976Z</time></trkpt><trkpt lat="45.70529355083138" lon="9.242838225339733"><ele>281.0</ele><time>2026-04-10T18:10:40.976Z</time></trkpt><trkpt lat="45.705241214412844" lon="9.24293825288121"><ele>281.0</ele><time>2026-04-10T18:10:43.976Z</time></trkpt><trkpt lat="45.70519444547176" lon="9.24301284179297"><ele>281.0</ele><time>2026-04-10T18:10:45.976Z</time></trkpt><trkpt lat="45.70511429862694" lon="9.243085989135716"><ele>280.83333333333337</ele><time>2026-04-10T18:10:48.976Z</time></trkpt><trkpt lat="45.705060949672955" lon="9.243150689582789"><ele>280.6666666666667</ele><time>2026-04-10T18:10:50.976Z</time></trkpt><trkpt lat="45.70500845068215" lon="9.243202065433495"><ele>280.5</ele><time>2026-04-10T18:10:52.976Z</time></trkpt><trkpt lat="45.70494052213889" lon="9.243280943244445"><ele>280.3333333333333</ele><time>2026-04-10T18:10:55.976Z</time></trkpt><trkpt lat="45.70486714439056" lon="9.243347374878626"><ele>280.16666666666663</ele><time>2026-04-10T18:10:58.976Z</time></trkpt><trkpt lat="45.704793038970614" lon="9.243389088287906"><ele>280.0</ele><time>2026-04-10T18:11:01.976Z</time></trkpt><trkpt lat="45.70471546109956" lon="9.24335250026644"><ele>280.0</ele><time>2026-04-10T18:11:04.976Z</time></trkpt><trkpt lat="45.70465560523143" lon="9.24332104754098"><ele>280.0</ele><time>2026-04-10T18:11:06.975Z</time></trkpt><trkpt lat="45.70458113414614" lon="9.243274150692905"><ele>280.0</ele><time>2026-04-10T18:11:09.975Z</time></trkpt><trkpt lat="45.70451386227684" lon="9.243214356737855"><ele>280.0</ele><time>2026-04-10T18:11:12.978Z</time></trkpt><trkpt lat="45.70444020330169" lon="9.243143020220133"><ele>280.0</ele><time>2026-04-10T18:11:16.977Z</time></trkpt><trkpt lat="45.70437340394984" lon="9.243095017546993"><ele>280.0</ele><time>2026-04-10T18:11:18.977Z</time></trkpt><trkpt lat="45.7043082384201" lon="9.243061157628805"><ele>279.8333333333333</ele><time>2026-04-10T18:11:20.977Z</time></trkpt><trkpt lat="45.704234258773454" lon="9.243014856719435"><ele>279.66666666666663</ele><time>2026-04-10T18:11:22.978Z</time></trkpt><trkpt lat="45.70417694985221" lon="9.242973855448774"><ele>279.5</ele><time>2026-04-10T18:11:24.978Z</time></trkpt><trkpt lat="45.70411568366241" lon="9.242930554340198"><ele>279.3333333333333</ele><time>2026-04-10T18:11:26.978Z</time></trkpt><trkpt lat="45.70404355962262" lon="9.242856275660989"><ele>279.1666666666667</ele><time>2026-04-10T18:11:29.978Z</time></trkpt><trkpt lat="45.70397079166049" lon="9.242800757260643"><ele>279.0</ele><time>2026-04-10T18:11:31.978Z</time></trkpt><trkpt lat="45.70389177828628" lon="9.242763340110015"><ele>279.0</ele><time>2026-04-10T18:11:33.978Z</time></trkpt><trkpt lat="45.70381155365938" lon="9.242709820660544"><ele>279.0</ele><time>2026-04-10T18:11:35.978Z</time></trkpt><trkpt lat="45.70372987720953" lon="9.242657823065967"><ele>279.0</ele><time>2026-04-10T18:11:37.978Z</time></trkpt><trkpt lat="45.70363951867528" lon="9.24264256618"><ele>279.0</ele><time>2026-04-10T18:11:39.978Z</time></trkpt><trkpt lat="45.7035492392119" lon="9.242648217704305"><ele>279.0</ele><time>2026-04-10T18:11:41.978Z</time></trkpt><trkpt lat="45.703462482516" lon="9.242676701068554"><ele>279.0</ele><time>2026-04-10T18:11:43.978Z</time></trkpt><trkpt lat="45.70337811809973" lon="9.242711979115134"><ele>278.6666666666667</ele><time>2026-04-10T18:11:45.978Z</time></trkpt><trkpt lat="45.7033130005868" lon="9.242749922264807"><ele>278.3333333333333</ele><time>2026-04-10T18:11:47.978Z</time></trkpt><trkpt lat="45.7032365659179" lon="9.242777661910498"><ele>278.0</ele><time>2026-04-10T18:11:49.978Z</time></trkpt><trkpt lat="45.70316583720967" lon="9.242807879417287"><ele>277.66666666666663</ele><time>2026-04-10T18:11:51.978Z</time></trkpt><trkpt lat="45.703101580482254" lon="9.242841420166203"><ele>277.3333333333333</ele><time>2026-04-10T18:11:53.978Z</time></trkpt><trkpt lat="45.7030177850629" lon="9.24287367547849"><ele>277.0</ele><time>2026-04-10T18:11:56.978Z</time></trkpt><trkpt lat="45.702925302957155" lon="9.24289815773881"><ele>277.0</ele><time>2026-04-10T18:11:59.978Z</time></trkpt><trkpt lat="45.70286072354025" lon="9.24290355942893"><ele>277.0</ele><time>2026-04-10T18:12:01.977Z</time></trkpt><trkpt lat="45.7028101717808" lon="9.242821145443324"><ele>277.0</ele><time>2026-04-10T18:12:04.977Z</time></trkpt><trkpt lat="45.70276624085759" lon="9.242718403850622"><ele>277.0</ele><time>2026-04-10T18:12:07.977Z</time></trkpt><trkpt lat="45.70271552553314" lon="9.242637844418288"><ele>277.0</ele><time>2026-04-10T18:12:10.977Z</time></trkpt><trkpt lat="45.7026618468507" lon="9.242583122557278"><ele>277.0</ele><time>2026-04-10T18:12:12.977Z</time></trkpt><trkpt lat="45.70261373981254" lon="9.242499522423724"><ele>277.0</ele><time>2026-04-10T18:12:14.977Z</time></trkpt><trkpt lat="45.70256283595085" lon="9.242429966269587"><ele>277.0</ele><time>2026-04-10T18:12:16.977Z</time></trkpt><trkpt lat="45.70250435713166" lon="9.242374702395807"><ele>277.0</ele><time>2026-04-10T18:12:18.977Z</time></trkpt><trkpt lat="45.70244785123253" lon="9.242291091824388"><ele>277.0</ele><time>2026-04-10T18:12:20.977Z</time></trkpt><trkpt lat="45.70238366167706" lon="9.242213398530366"><ele>277.0</ele><time>2026-04-10T18:12:22.977Z</time></trkpt><trkpt lat="45.70232316129292" lon="9.242142048515014"><ele>277.0</ele><time>2026-04-10T18:12:24.977Z</time></trkpt><trkpt lat="45.70225799948076" lon="9.242115258663336"><ele>277.0</ele><time>2026-04-10T18:12:26.977Z</time></trkpt><trkpt lat="45.702185448376426" lon="9.242104387973622"><ele>277.0</ele><time>2026-04-10T18:12:28.977Z</time></trkpt><trkpt lat="45.702123021104946" lon="9.242120485038576"><ele>277.0</ele><time>2026-04-10T18:12:30.977Z</time></trkpt><trkpt lat="45.7020378586405" lon="9.242135654609765"><ele>277.0</ele><time>2026-04-10T18:12:33.977Z</time></trkpt><trkpt lat="45.70195696333837" lon="9.242142662459322"><ele>277.0</ele><time>2026-04-10T18:12:36.977Z</time></trkpt><trkpt lat="45.701871214053" lon="9.242156564109544"><ele>277.0</ele><time>2026-04-10T18:12:39.977Z</time></trkpt><trkpt lat="45.701805235876506" lon="9.24217493651263"><ele>277.0</ele><time>2026-04-10T18:12:41.977Z</time></trkpt><trkpt lat="45.70174214560066" lon="9.24220111476906"><ele>277.0</ele><time>2026-04-10T18:12:43.977Z</time></trkpt><trkpt lat="45.70166057455296" lon="9.242254689878873"><ele>277.66666666666663</ele><time>2026-04-10T18:12:46.977Z</time></trkpt><trkpt lat="45.70158379069077" lon="9.242326771777636"><ele>278.3333333333333</ele><time>2026-04-10T18:12:49.977Z</time></trkpt><trkpt lat="45.70152329483913" lon="9.242428653818502"><ele>279.0</ele><time>2026-04-10T18:12:52.977Z</time></trkpt><trkpt lat="45.70146964731793" lon="9.242478727297856"><ele>279.6666666666667</ele><time>2026-04-10T18:12:54.977Z</time></trkpt><trkpt lat="45.701402454534005" lon="9.242538236462803"><ele>280.33333333333337</ele><time>2026-04-10T18:12:57.976Z</time></trkpt><trkpt lat="45.70131493749309" lon="9.242596763461533"><ele>281.0</ele><time>2026-04-10T18:13:00.976Z</time></trkpt><trkpt lat="45.70125437699318" lon="9.24268778139595"><ele>281.00000000000006</ele><time>2026-04-10T18:13:02.976Z</time></trkpt><trkpt lat="45.701201382233656" lon="9.242755886507704"><ele>281.0</ele><time>2026-04-10T18:13:04.976Z</time></trkpt><trkpt lat="45.701146469631375" lon="9.242811752281597"><ele>281.0</ele><time>2026-04-10T18:13:06.976Z</time></trkpt><trkpt lat="45.70107910686895" lon="9.24286221917882"><ele>281.0</ele><time>2026-04-10T18:13:08.976Z</time></trkpt><trkpt lat="45.701014366948506" lon="9.242890685422845"><ele>281.0</ele><time>2026-04-10T18:13:10.976Z</time></trkpt><trkpt lat="45.70095424495855" lon="9.242926760172189"><ele>281.00000000000006</ele><time>2026-04-10T18:13:12.976Z</time></trkpt><trkpt lat="45.7008730258556" lon="9.242966045691318"><ele>281.0</ele><time>2026-04-10T18:13:15.976Z</time></trkpt><trkpt lat="45.700791924927536" lon="9.242992305027556"><ele>280.1666666666667</ele><time>2026-04-10T18:13:18.978Z</time></trkpt><trkpt lat="45.70072709503956" lon="9.243005682605903"><ele>279.33333333333337</ele><time>2026-04-10T18:13:20.978Z</time></trkpt><trkpt lat="45.700662461353424" lon="9.243013275952931"><ele>278.5</ele><time>2026-04-10T18:13:22.978Z</time></trkpt><trkpt lat="45.700581542331186" lon="9.24304730028356"><ele>277.6666666666667</ele><time>2026-04-10T18:13:25.979Z</time></trkpt><trkpt lat="45.70051014197233" lon="9.243019353187199"><ele>276.8333333333333</ele><time>2026-04-10T18:13:28.979Z</time></trkpt><trkpt lat="45.70048157851607" lon="9.242904696963832"><ele>276.0</ele><time>2026-04-10T18:13:31.979Z</time></trkpt><trkpt lat="45.70046730354516" lon="9.242794074650007"><ele>276.0</ele><time>2026-04-10T18:13:34.979Z</time></trkpt><trkpt lat="45.700446764420825" lon="9.242703605999624"><ele>276.0</ele><time>2026-04-10T18:13:37.979Z</time></trkpt><trkpt lat="45.700421932549524" lon="9.24261097209511"><ele>276.0</ele><time>2026-04-10T18:13:40.979Z</time></trkpt><trkpt lat="45.70038388977629" lon="9.242506655992786"><ele>276.0</ele><time>2026-04-10T18:13:43.979Z</time></trkpt><trkpt lat="45.70035572544897" lon="9.242422255925348"><ele>276.0</ele><time>2026-04-10T18:13:45.979Z</time></trkpt><trkpt lat="45.70031898671735" lon="9.24234547850059"><ele>276.0</ele><time>2026-04-10T18:13:47.979Z</time></trkpt><trkpt lat="45.70029994859088" lon="9.242222463805582"><ele>276.0</ele><time>2026-04-10T18:13:50.978Z</time></trkpt><trkpt lat="45.70029207936408" lon="9.242129856991792"><ele>276.0</ele><time>2026-04-10T18:13:52.978Z</time></trkpt><trkpt lat="45.700257507655074" lon="9.242023988945702"><ele>276.0</ele><time>2026-04-10T18:13:55.978Z</time></trkpt><trkpt lat="45.70022743004016" lon="9.241937597798474"><ele>276.0</ele><time>2026-04-10T18:13:57.978Z</time></trkpt><trkpt lat="45.700178586207066" lon="9.241826961055871"><ele>276.0</ele><time>2026-04-10T18:14:00.978Z</time></trkpt><trkpt lat="45.70016579514649" lon="9.241689292190053"><ele>276.0</ele><time>2026-04-10T18:14:03.978Z</time></trkpt><trkpt lat="45.70014497810641" lon="9.241598802815766"><ele>276.0</ele><time>2026-04-10T18:14:05.978Z</time></trkpt><trkpt lat="45.700089992518265" lon="9.241533499934249"><ele>275.3333333333333</ele><time>2026-04-10T18:14:07.978Z</time></trkpt><trkpt lat="45.70003906904032" lon="9.24147307657867"><ele>274.6666666666667</ele><time>2026-04-10T18:14:09.978Z</time></trkpt><trkpt lat="45.699979936278794" lon="9.241438961986127"><ele>274.0</ele><time>2026-04-10T18:14:11.978Z</time></trkpt><trkpt lat="45.699902902445" lon="9.241380731932972"><ele>273.33333333333337</ele><time>2026-04-10T18:14:14.978Z</time></trkpt><trkpt lat="45.699829424734155" lon="9.241306274857509"><ele>272.6666666666667</ele><time>2026-04-10T18:14:17.978Z</time></trkpt><trkpt lat="45.69974766527011" lon="9.241252379611176"><ele>272.0</ele><time>2026-04-10T18:14:20.978Z</time></trkpt><trkpt lat="45.69967177874007" lon="9.241187556328153"><ele>272.0</ele><time>2026-04-10T18:14:23.978Z</time></trkpt><trkpt lat="45.69959979206384" lon="9.241100070936751"><ele>272.0</ele><time>2026-04-10T18:14:26.978Z</time></trkpt><trkpt lat="45.6995348848647" lon="9.241013484017984"><ele>272.0</ele><time>2026-04-10T18:14:29.978Z</time></trkpt><trkpt lat="45.699461535822" lon="9.240951199595722"><ele>272.0</ele><time>2026-04-10T18:14:32.978Z</time></trkpt><trkpt lat="45.6993848277668" lon="9.240890195027944"><ele>272.0</ele><time>2026-04-10T18:14:35.978Z</time></trkpt><trkpt lat="45.69932593104752" lon="9.240856954059364"><ele>272.0</ele><time>2026-04-10T18:14:37.978Z</time></trkpt><trkpt lat="45.69923742316959" lon="9.240834187510808"><ele>274.0</ele><time>2026-04-10T18:14:40.978Z</time></trkpt><trkpt lat="45.69914462329387" lon="9.240814611232146"><ele>276.0</ele><time>2026-04-10T18:14:43.977Z</time></trkpt><trkpt lat="45.69905615383665" lon="9.240779126432392"><ele>278.0</ele><time>2026-04-10T18:14:46.977Z</time></trkpt><trkpt lat="45.69897490318381" lon="9.24073234248557"><ele>280.0</ele><time>2026-04-10T18:14:49.977Z</time></trkpt><trkpt lat="45.698910484035984" lon="9.240700481321715"><ele>282.0</ele><time>2026-04-10T18:14:51.977Z</time></trkpt><trkpt lat="45.69884756594323" lon="9.24069045021904"><ele>284.0</ele><time>2026-04-10T18:14:53.977Z</time></trkpt><trkpt lat="45.69878652491458" lon="9.240660648180802"><ele>284.0</ele><time>2026-04-10T18:14:55.977Z</time></trkpt><trkpt lat="45.698713781465926" lon="9.240645304112183"><ele>284.0</ele><time>2026-04-10T18:14:57.977Z</time></trkpt><trkpt lat="45.69862637242932" lon="9.240593248989834"><ele>284.0</ele><time>2026-04-10T18:15:00.977Z</time></trkpt><trkpt lat="45.698568623174694" lon="9.24054919758412"><ele>284.0</ele><time>2026-04-10T18:15:02.977Z</time></trkpt><trkpt lat="45.69850707986357" lon="9.24050947850906"><ele>284.0</ele><time>2026-04-10T18:15:04.977Z</time></trkpt><trkpt lat="45.69844744957333" lon="9.240472977645492"><ele>284.0</ele><time>2026-04-10T18:15:06.977Z</time></trkpt><trkpt lat="45.69838850869002" lon="9.24042536483015"><ele>284.0</ele><time>2026-04-10T18:15:08.977Z</time></trkpt><trkpt lat="45.69829829056685" lon="9.24039338544542"><ele>282.42857142857144</ele><time>2026-04-10T18:15:11.977Z</time></trkpt><trkpt lat="45.698222417356824" lon="9.240392373608469"><ele>280.85714285714283</ele><time>2026-04-10T18:15:13.977Z</time></trkpt><trkpt lat="45.69815023236167" lon="9.240384750783267"><ele>279.2857142857143</ele><time>2026-04-10T18:15:15.977Z</time></trkpt><trkpt lat="45.69807875485571" lon="9.240389592612535"><ele>277.7142857142857</ele><time>2026-04-10T18:15:17.977Z</time></trkpt><trkpt lat="45.69801590238548" lon="9.240396933716523"><ele>276.1428571428571</ele><time>2026-04-10T18:15:19.977Z</time></trkpt><trkpt lat="45.69794690266771" lon="9.240399648809648"><ele>274.57142857142856</ele><time>2026-04-10T18:15:21.977Z</time></trkpt><trkpt lat="45.697853139574775" lon="9.240413397488648"><ele>273.0</ele><time>2026-04-10T18:15:24.98Z</time></trkpt><trkpt lat="45.69778482688758" lon="9.240414804578274"><ele>273.7142857142857</ele><time>2026-04-10T18:15:26.98Z</time></trkpt><trkpt lat="45.697722982849655" lon="9.240437689967589"><ele>274.42857142857144</ele><time>2026-04-10T18:15:28.979Z</time></trkpt><trkpt lat="45.69764304896594" lon="9.240446449116488"><ele>275.1428571428571</ele><time>2026-04-10T18:15:31.979Z</time></trkpt><trkpt lat="45.697578196464804" lon="9.240452704090298"><ele>275.8571428571429</ele><time>2026-04-10T18:15:33.979Z</time></trkpt><trkpt lat="45.697497627031225" lon="9.240477336159596"><ele>276.57142857142856</ele><time>2026-04-10T18:15:36.979Z</time></trkpt><trkpt lat="45.69742212036282" lon="9.240524888787615"><ele>277.2857142857143</ele><time>2026-04-10T18:15:39.979Z</time></trkpt><trkpt lat="45.697366213696036" lon="9.24059267009081"><ele>278.0</ele><time>2026-04-10T18:15:42.979Z</time></trkpt><trkpt lat="45.69731242808409" lon="9.240700904718594"><ele>280.33333333333337</ele><time>2026-04-10T18:15:45.979Z</time></trkpt><trkpt lat="45.697276933944664" lon="9.240810921594772"><ele>282.6666666666667</ele><time>2026-04-10T18:15:48.979Z</time></trkpt><trkpt lat="45.69725137284076" lon="9.240911643177077"><ele>285.0</ele><time>2026-04-10T18:15:51.978Z</time></trkpt><trkpt lat="45.697235509937244" lon="9.241025546908626"><ele>287.3333333333333</ele><time>2026-04-10T18:15:54.978Z</time></trkpt><trkpt lat="45.697210921716234" lon="9.241134702801228"><ele>289.66666666666663</ele><time>2026-04-10T18:15:57.978Z</time></trkpt><trkpt lat="45.69719081656489" lon="9.241220570065483"><ele>292.0</ele><time>2026-04-10T18:16:00.978Z</time></trkpt><trkpt lat="45.69713397641644" lon="9.24129345566493"><ele>292.0</ele><time>2026-04-10T18:16:05.978Z</time></trkpt><trkpt lat="45.697133802747025" lon="9.241399023727356"><ele>292.0</ele><time>2026-04-10T18:16:08.978Z</time></trkpt><trkpt lat="45.6971174561987" lon="9.241492889904865"><ele>292.0</ele><time>2026-04-10T18:16:11.978Z</time></trkpt><trkpt lat="45.697088792558034" lon="9.241588826037669"><ele>292.0</ele><time>2026-04-10T18:16:14.978Z</time></trkpt><trkpt lat="45.69707203431082" lon="9.241702583867644"><ele>292.0</ele><time>2026-04-10T18:16:17.978Z</time></trkpt><trkpt lat="45.69705864878212" lon="9.24182214092984"><ele>292.0</ele><time>2026-04-10T18:16:20.978Z</time></trkpt><trkpt lat="45.69707313878784" lon="9.241914790671819"><ele>292.0</ele><time>2026-04-10T18:16:22.978Z</time></trkpt><trkpt lat="45.69710478439182" lon="9.242037989890266"><ele>292.66666666666663</ele><time>2026-04-10T18:16:25.978Z</time></trkpt><trkpt lat="45.69714910924219" lon="9.242123386823053"><ele>293.3333333333333</ele><time>2026-04-10T18:16:27.978Z</time></trkpt><trkpt lat="45.697181658397575" lon="9.242202895179794"><ele>294.0</ele><time>2026-04-10T18:16:29.978Z</time></trkpt><trkpt lat="45.69724420311968" lon="9.242299971779854"><ele>294.6666666666667</ele><time>2026-04-10T18:16:32.978Z</time></trkpt><trkpt lat="45.697313591629246" lon="9.242389705993382"><ele>295.33333333333337</ele><time>2026-04-10T18:16:35.978Z</time></trkpt><trkpt lat="45.69737801581034" lon="9.24247827283687"><ele>296.0</ele><time>2026-04-10T18:16:38.978Z</time></trkpt><trkpt lat="45.697423033013294" lon="9.242542194944358"><ele>296.0</ele><time>2026-04-10T18:16:40.978Z</time></trkpt><trkpt lat="45.69747008190948" lon="9.242603172914695"><ele>296.0</ele><time>2026-04-10T18:16:42.978Z</time></trkpt><trkpt lat="45.69752047024282" lon="9.242666103163996"><ele>296.0</ele><time>2026-04-10T18:16:44.978Z</time></trkpt><trkpt lat="45.697596829021975" lon="9.242740897102262"><ele>296.0</ele><time>2026-04-10T18:16:47.977Z</time></trkpt><trkpt lat="45.69764432476774" lon="9.24280074136138"><ele>296.0</ele><time>2026-04-10T18:16:49.977Z</time></trkpt><trkpt lat="45.697698965711645" lon="9.242846152359348"><ele>296.0</ele><time>2026-04-10T18:16:51.977Z</time></trkpt><trkpt lat="45.697765674357896" lon="9.242905622372609"><ele>296.0</ele><time>2026-04-10T18:16:54.977Z</time></trkpt><trkpt lat="45.697830262875115" lon="9.242971439728505"><ele>295.83333333333337</ele><time>2026-04-10T18:16:57.976Z</time></trkpt><trkpt lat="45.6978963640085" lon="9.243042416976182"><ele>295.6666666666667</ele><time>2026-04-10T18:17:00.976Z</time></trkpt><trkpt lat="45.697952534122415" lon="9.24309461588659"><ele>295.5</ele><time>2026-04-10T18:17:03.976Z</time></trkpt><trkpt lat="45.69799234726357" lon="9.243173893366828"><ele>295.3333333333333</ele><time>2026-04-10T18:17:06.975Z</time></trkpt><trkpt lat="45.698033146579945" lon="9.24325625128928"><ele>295.16666666666663</ele><time>2026-04-10T18:17:10.975Z</time></trkpt><trkpt lat="45.69802318088264" lon="9.24337218814787"><ele>295.0</ele><time>2026-04-10T18:17:15.975Z</time></trkpt><trkpt lat="45.6980532062546" lon="9.243499879980083"><ele>295.0</ele><time>2026-04-10T18:17:18.975Z</time></trkpt><trkpt lat="45.69807066378082" lon="9.243606047085322"><ele>295.0</ele><time>2026-04-10T18:17:20.974Z</time></trkpt><trkpt lat="45.69807620397628" lon="9.243745854160602"><ele>295.0</ele><time>2026-04-10T18:17:22.974Z</time></trkpt><trkpt lat="45.69807741908715" lon="9.243864716894238"><ele>295.0</ele><time>2026-04-10T18:17:24.974Z</time></trkpt><trkpt lat="45.69806962330614" lon="9.243983983674113"><ele>295.0</ele><time>2026-04-10T18:17:26.974Z</time></trkpt><trkpt lat="45.69805558362766" lon="9.24408798756501"><ele>295.0</ele><time>2026-04-10T18:17:28.974Z</time></trkpt><trkpt lat="45.698038396457825" lon="9.244206921763753"><ele>294.5</ele><time>2026-04-10T18:17:30.978Z</time></trkpt><trkpt lat="45.698019595073944" lon="9.244314719039187"><ele>294.0</ele><time>2026-04-10T18:17:32.978Z</time></trkpt><trkpt lat="45.69799270879068" lon="9.2444157376228"><ele>293.5</ele><time>2026-04-10T18:17:34.978Z</time></trkpt><trkpt lat="45.69797271323029" lon="9.244525800439412"><ele>293.0</ele><time>2026-04-10T18:17:36.977Z</time></trkpt><trkpt lat="45.697957427961484" lon="9.244638251048508"><ele>292.5</ele><time>2026-04-10T18:17:38.977Z</time></trkpt><trkpt lat="45.69791701447163" lon="9.24473260335828"><ele>292.0</ele><time>2026-04-10T18:17:40.978Z</time></trkpt><trkpt lat="45.697847867357254" lon="9.244780227624435"><ele>291.0</ele><time>2026-04-10T18:17:42.977Z</time></trkpt><trkpt lat="45.69777429583114" lon="9.244822358115215"><ele>290.0</ele><time>2026-04-10T18:17:45.977Z</time></trkpt><trkpt lat="45.69768714212803" lon="9.244846636899494"><ele>289.0</ele><time>2026-04-10T18:17:48.977Z</time></trkpt><trkpt lat="45.6976071366646" lon="9.244874248711717"><ele>288.0</ele><time>2026-04-10T18:17:50.977Z</time></trkpt><trkpt lat="45.69751746323496" lon="9.244893127031109"><ele>287.0</ele><time>2026-04-10T18:17:52.977Z</time></trkpt><trkpt lat="45.6974281264112" lon="9.244911057357058"><ele>286.0</ele><time>2026-04-10T18:17:54.977Z</time></trkpt><trkpt lat="45.69734337885791" lon="9.244922946362712"><ele>284.0</ele><time>2026-04-10T18:17:56.977Z</time></trkpt><trkpt lat="45.697249775406036" lon="9.244941530366763"><ele>282.0</ele><time>2026-04-10T18:17:58.977Z</time></trkpt><trkpt lat="45.69716771926825" lon="9.244979961530637"><ele>280.0</ele><time>2026-04-10T18:18:00.977Z</time></trkpt><trkpt lat="45.69708781451819" lon="9.24501647432687"><ele>278.0</ele><time>2026-04-10T18:18:02.977Z</time></trkpt><trkpt lat="45.69701119716017" lon="9.245051644725383"><ele>276.0</ele><time>2026-04-10T18:18:04.977Z</time></trkpt><trkpt lat="45.69693966911515" lon="9.245087740376764"><ele>274.0</ele><time>2026-04-10T18:18:06.977Z</time></trkpt><trkpt lat="45.696867667189046" lon="9.245144142050044"><ele>274.0</ele><time>2026-04-10T18:18:08.977Z</time></trkpt><trkpt lat="45.69680390218666" lon="9.245202996651612"><ele>274.0</ele><time>2026-04-10T18:18:10.977Z</time></trkpt><trkpt lat="45.69675700112003" lon="9.245267915119344"><ele>274.0</ele><time>2026-04-10T18:18:12.977Z</time></trkpt><trkpt lat="45.69671061538521" lon="9.245358162409573"><ele>274.0</ele><time>2026-04-10T18:18:15.977Z</time></trkpt><trkpt lat="45.696636708635204" lon="9.24544131376383"><ele>274.0</ele><time>2026-04-10T18:18:18.977Z</time></trkpt><trkpt lat="45.69658902653692" lon="9.245517523754465"><ele>274.0</ele><time>2026-04-10T18:18:20.977Z</time></trkpt><trkpt lat="45.696619051143514" lon="9.245604037858943"><ele>274.0</ele><time>2026-04-10T18:18:27.977Z</time></trkpt><trkpt lat="45.69668622327981" lon="9.2456460778291"><ele>274.0</ele><time>2026-04-10T18:18:31.977Z</time></trkpt><trkpt lat="45.6967571628183" lon="9.245688460718787"><ele>274.0</ele><time>2026-04-10T18:18:35.976Z</time></trkpt><trkpt lat="45.69683340685625" lon="9.24574170382736"><ele>274.0</ele><time>2026-04-10T18:18:39.976Z</time></trkpt><trkpt lat="45.696901032000504" lon="9.245796149982207"><ele>274.0</ele><time>2026-04-10T18:18:42.976Z</time></trkpt><trkpt lat="45.696971078198736" lon="9.245850132890439"><ele>274.0</ele><time>2026-04-10T18:18:45.976Z</time></trkpt><trkpt lat="45.697038125367406" lon="9.245921439874168"><ele>274.0</ele><time>2026-04-10T18:18:48.976Z</time></trkpt><trkpt lat="45.69710854879021" lon="9.245973606143005"><ele>274.0</ele><time>2026-04-10T18:18:51.976Z</time></trkpt><trkpt lat="45.69717713777529" lon="9.24601968995661"><ele>274.0</ele><time>2026-04-10T18:18:54.976Z</time></trkpt><trkpt lat="45.69726189766371" lon="9.246051724206811"><ele>274.0</ele><time>2026-04-10T18:18:57.976Z</time></trkpt><trkpt lat="45.69732513480723" lon="9.246089681684184"><ele>274.0</ele><time>2026-04-10T18:18:59.976Z</time></trkpt><trkpt lat="45.697382635159684" lon="9.246126994024454"><ele>274.0</ele><time>2026-04-10T18:19:01.976Z</time></trkpt><trkpt lat="45.69747012230585" lon="9.246155273818662"><ele>274.0</ele><time>2026-04-10T18:19:04.976Z</time></trkpt><trkpt lat="45.69753295986898" lon="9.246185580109527"><ele>274.0</ele><time>2026-04-10T18:19:06.976Z</time></trkpt><trkpt lat="45.6975976247696" lon="9.246218310762018"><ele>274.0</ele><time>2026-04-10T18:19:08.976Z</time></trkpt><trkpt lat="45.697666708717364" lon="9.24625158488712"><ele>274.0</ele><time>2026-04-10T18:19:11.976Z</time></trkpt><trkpt lat="45.69775140100727" lon="9.246281126679301"><ele>274.0</ele><time>2026-04-10T18:19:14.976Z</time></trkpt><trkpt lat="45.697829739869476" lon="9.24631059927508"><ele>274.0</ele><time>2026-04-10T18:19:17.976Z</time></trkpt><trkpt lat="45.69792272128051" lon="9.24631350270823"><ele>276.3333333333333</ele><time>2026-04-10T18:19:20.976Z</time></trkpt><trkpt lat="45.69807214345991" lon="9.24630348472463"><ele>278.6666666666667</ele><time>2026-04-10T18:19:26.975Z</time></trkpt><trkpt lat="45.69833834428117" lon="9.246282871512047"><ele>281.0</ele><time>2026-04-10T18:19:35.975Z</time></trkpt><trkpt lat="45.69842585498333" lon="9.246266211412085"><ele>281.00000000000006</ele><time>2026-04-10T18:19:38.977Z</time></trkpt><trkpt lat="45.69849946211163" lon="9.246250879439053"><ele>281.0</ele><time>2026-04-10T18:19:41.978Z</time></trkpt><trkpt lat="45.69858210214136" lon="9.246235741985984"><ele>281.0</ele><time>2026-04-10T18:19:44.978Z</time></trkpt><trkpt lat="45.69864119546572" lon="9.246195353117006"><ele>281.0</ele><time>2026-04-10T18:19:47.978Z</time></trkpt><trkpt lat="45.69868171488168" lon="9.24611566569076"><ele>281.0</ele><time>2026-04-10T18:19:51.978Z</time></trkpt><trkpt lat="45.698730459072756" lon="9.246023591660377"><ele>281.00000000000006</ele><time>2026-04-10T18:19:55.978Z</time></trkpt><trkpt lat="45.69877390073106" lon="9.24593864714767"><ele>281.0</ele><time>2026-04-10T18:19:59.978Z</time></trkpt><trkpt lat="45.69881033566965" lon="9.245856191484611"><ele>282.28571428571433</ele><time>2026-04-10T18:20:02.978Z</time></trkpt><trkpt lat="45.698853707598964" lon="9.245755094634351"><ele>283.57142857142856</ele><time>2026-04-10T18:20:06.978Z</time></trkpt><trkpt lat="45.6988822756661" lon="9.245664893730408"><ele>284.8571428571429</ele><time>2026-04-10T18:20:09.978Z</time></trkpt><trkpt lat="45.698932398886804" lon="9.245602630711408"><ele>286.14285714285717</ele><time>2026-04-10T18:20:12.978Z</time></trkpt><trkpt lat="45.69897883248175" lon="9.245528110527228"><ele>287.42857142857144</ele><time>2026-04-10T18:20:15.978Z</time></trkpt><trkpt lat="45.69902643275562" lon="9.245437688812093"><ele>288.7142857142857</ele><time>2026-04-10T18:20:18.978Z</time></trkpt><trkpt lat="45.6990598552726" lon="9.245343631522823"><ele>290.0</ele><time>2026-04-10T18:20:21.978Z</time></trkpt><trkpt lat="45.69910321157322" lon="9.245257122072307"><ele>290.0</ele><time>2026-04-10T18:20:24.978Z</time></trkpt><trkpt lat="45.69915440116357" lon="9.245179280879945"><ele>290.0</ele><time>2026-04-10T18:20:27.978Z</time></trkpt><trkpt lat="45.69920954613283" lon="9.245095261021383"><ele>290.0</ele><time>2026-04-10T18:20:30.978Z</time></trkpt><trkpt lat="45.69927027274637" lon="9.245022104384978"><ele>290.0</ele><time>2026-04-10T18:20:33.978Z</time></trkpt><trkpt lat="45.69933473411748" lon="9.244949538616808"><ele>290.0</ele><time>2026-04-10T18:20:36.978Z</time></trkpt><trkpt lat="45.699413497362684" lon="9.244884120652113"><ele>290.0</ele><time>2026-04-10T18:20:39.978Z</time></trkpt><trkpt lat="45.69947714802398" lon="9.244882313889123"><ele>289.2857142857143</ele><time>2026-04-10T18:20:41.978Z</time></trkpt><trkpt lat="45.69955675882787" lon="9.24491116868299"><ele>288.5714285714286</ele><time>2026-04-10T18:20:44.977Z</time></trkpt><trkpt lat="45.6995636372852" lon="9.24500670635244"><ele>287.8571428571429</ele><time>2026-04-10T18:20:47.977Z</time></trkpt><trkpt lat="45.69954496111942" lon="9.24510593879485"><ele>287.14285714285717</ele><time>2026-04-10T18:20:51.977Z</time></trkpt><trkpt lat="45.699511273729705" lon="9.245211966358323"><ele>286.42857142857144</ele><time>2026-04-10T18:20:55.977Z</time></trkpt><trkpt lat="45.699485026711635" lon="9.245304121034334"><ele>285.7142857142857</ele><time>2026-04-10T18:20:59.977Z</time></trkpt><trkpt lat="45.69947531083576" lon="9.245398348061508"><ele>285.0</ele><time>2026-04-10T18:21:03.977Z</time></trkpt><trkpt lat="45.69951371971952" lon="9.245489173438925"><ele>285.0</ele><time>2026-04-10T18:21:06.977Z</time></trkpt><trkpt lat="45.69956161242873" lon="9.245569736285988"><ele>285.0</ele><time>2026-04-10T18:21:09.977Z</time></trkpt><trkpt lat="45.699620748624994" lon="9.245651371477443"><ele>285.0</ele><time>2026-04-10T18:21:12.977Z</time></trkpt><trkpt lat="45.69969210755334" lon="9.245704874116559"><ele>285.0</ele><time>2026-04-10T18:21:15.977Z</time></trkpt><trkpt lat="45.69976936195165" lon="9.245736565697674"><ele>285.0</ele><time>2026-04-10T18:21:18.977Z</time></trkpt><trkpt lat="45.69982784940316" lon="9.2457991049794"><ele>285.0</ele><time>2026-04-10T18:21:21.977Z</time></trkpt><trkpt lat="45.69989544916175" lon="9.245817601756196"><ele>285.1428571428571</ele><time>2026-04-10T18:21:24.977Z</time></trkpt><trkpt lat="45.69995329051974" lon="9.245893226753742"><ele>285.2857142857143</ele><time>2026-04-10T18:21:29.977Z</time></trkpt><trkpt lat="45.70001805593632" lon="9.24591044733782"><ele>285.42857142857144</ele><time>2026-04-10T18:21:37.976Z</time></trkpt><trkpt lat="45.70007811408629" lon="9.245971982920947"><ele>285.57142857142856</ele><time>2026-04-10T18:21:42.978Z</time></trkpt><trkpt lat="45.700140307962926" lon="9.246041738035892"><ele>285.7142857142857</ele><time>2026-04-10T18:21:47.979Z</time></trkpt><trkpt lat="45.700197013953456" lon="9.246097457436953"><ele>285.85714285714283</ele><time>2026-04-10T18:21:51.979Z</time></trkpt><trkpt lat="45.700239102927945" lon="9.246179767306618"><ele>286.0</ele><time>2026-04-10T18:21:55.979Z</time></trkpt><trkpt lat="45.700305775238164" lon="9.246252694897061"><ele>285.99999999999994</ele><time>2026-04-10T18:21:59.979Z</time></trkpt><trkpt lat="45.70034797733926" lon="9.24632707469919"><ele>286.0</ele><time>2026-04-10T18:22:02.979Z</time></trkpt><trkpt lat="45.700398266435485" lon="9.246398073665459"><ele>286.0</ele><time>2026-04-10T18:22:05.979Z</time></trkpt><trkpt lat="45.70042727061924" lon="9.246489568804483"><ele>286.0</ele><time>2026-04-10T18:22:08.979Z</time></trkpt><trkpt lat="45.70047987000671" lon="9.246564894111485"><ele>286.0</ele><time>2026-04-10T18:22:12.979Z</time></trkpt><trkpt lat="45.700536988504176" lon="9.246626848467379"><ele>285.99999999999994</ele><time>2026-04-10T18:22:16.979Z</time></trkpt><trkpt lat="45.70059220227621" lon="9.246673812947726"><ele>286.0</ele><time>2026-04-10T18:22:19.979Z</time></trkpt><trkpt lat="45.70066215229556" lon="9.246751391606704"><ele>287.4285714285714</ele><time>2026-04-10T18:22:22.979Z</time></trkpt><trkpt lat="45.70073599628683" lon="9.246833210261725"><ele>288.85714285714283</ele><time>2026-04-10T18:22:25.979Z</time></trkpt><trkpt lat="45.70078793228447" lon="9.246892593350559"><ele>290.2857142857143</ele><time>2026-04-10T18:22:27.978Z</time></trkpt><trkpt lat="45.70083975772198" lon="9.24694481419158"><ele>291.71428571428567</ele><time>2026-04-10T18:22:29.978Z</time></trkpt><trkpt lat="45.700899150171466" lon="9.246990405008344"><ele>293.1428571428571</ele><time>2026-04-10T18:22:31.978Z</time></trkpt><trkpt lat="45.70095191828456" lon="9.247050254403735"><ele>294.57142857142856</ele><time>2026-04-10T18:22:33.978Z</time></trkpt><trkpt lat="45.70100842392247" lon="9.24711396038091"><ele>296.0</ele><time>2026-04-10T18:22:35.978Z</time></trkpt><trkpt lat="45.70106950480982" lon="9.247174013878052"><ele>296.0</ele><time>2026-04-10T18:22:37.978Z</time></trkpt><trkpt lat="45.70112314860096" lon="9.247251910014864"><ele>296.0</ele><time>2026-04-10T18:22:39.978Z</time></trkpt><trkpt lat="45.70118856114247" lon="9.247330455014193"><ele>296.0</ele><time>2026-04-10T18:22:42.978Z</time></trkpt><trkpt lat="45.70124883970641" lon="9.24737846448165"><ele>296.0</ele><time>2026-04-10T18:22:44.978Z</time></trkpt><trkpt lat="45.70131801007534" lon="9.24741569429546"><ele>296.0</ele><time>2026-04-10T18:22:46.978Z</time></trkpt><trkpt lat="45.70137334058992" lon="9.247469082417767"><ele>296.0</ele><time>2026-04-10T18:22:48.978Z</time></trkpt><trkpt lat="45.701432382916515" lon="9.247506029056913"><ele>296.0</ele><time>2026-04-10T18:22:50.978Z</time></trkpt><trkpt lat="45.70148444262216" lon="9.247566977339481"><ele>296.5</ele><time>2026-04-10T18:22:52.978Z</time></trkpt><trkpt lat="45.70153959506049" lon="9.247629314649297"><ele>297.0</ele><time>2026-04-10T18:22:54.978Z</time></trkpt><trkpt lat="45.70159209421919" lon="9.247706276088032"><ele>297.5</ele><time>2026-04-10T18:22:56.978Z</time></trkpt><trkpt lat="45.701630987487285" lon="9.247785825870686"><ele>298.0</ele><time>2026-04-10T18:22:58.978Z</time></trkpt><trkpt lat="45.7016840746398" lon="9.24784499057715"><ele>298.5</ele><time>2026-04-10T18:23:00.978Z</time></trkpt><trkpt lat="45.701752009165126" lon="9.247910827342332"><ele>299.0</ele><time>2026-04-10T18:23:03.978Z</time></trkpt><trkpt lat="45.70182533866216" lon="9.247989318691976"><ele>299.0</ele><time>2026-04-10T18:23:06.978Z</time></trkpt><trkpt lat="45.701906401178945" lon="9.248032195930412"><ele>299.0</ele><time>2026-04-10T18:23:09.978Z</time></trkpt><trkpt lat="45.70198952861342" lon="9.248086959135518"><ele>299.0</ele><time>2026-04-10T18:23:12.978Z</time></trkpt><trkpt lat="45.70206585587311" lon="9.248111697534569"><ele>299.0</ele><time>2026-04-10T18:23:15.978Z</time></trkpt><trkpt lat="45.70214982654513" lon="9.24815192959096"><ele>299.0</ele><time>2026-04-10T18:23:18.978Z</time></trkpt><trkpt lat="45.70222388372152" lon="9.248208192812822"><ele>299.0</ele><time>2026-04-10T18:23:21.977Z</time></trkpt><trkpt lat="45.7022908898677" lon="9.24826334564462"><ele>299.85714285714283</ele><time>2026-04-10T18:23:24.977Z</time></trkpt><trkpt lat="45.702302480926406" lon="9.248362397261225"><ele>300.7142857142857</ele><time>2026-04-10T18:23:27.977Z</time></trkpt><trkpt lat="45.70228250226286" lon="9.248450243941447"><ele>301.57142857142856</ele><time>2026-04-10T18:23:30.977Z</time></trkpt><trkpt lat="45.70226842256179" lon="9.248565979537613"><ele>302.42857142857144</ele><time>2026-04-10T18:23:33.977Z</time></trkpt><trkpt lat="45.702255513190075" lon="9.248666598315756"><ele>303.2857142857143</ele><time>2026-04-10T18:23:36.977Z</time></trkpt><trkpt lat="45.70229998436473" lon="9.248769790579585"><ele>304.14285714285717</ele><time>2026-04-10T18:23:39.977Z</time></trkpt><trkpt lat="45.70227947504546" lon="9.248856975635743"><ele>305.0</ele><time>2026-04-10T18:23:42.977Z</time></trkpt><trkpt lat="45.7022175268599" lon="9.248875547715752"><ele>305.0</ele><time>2026-04-10T18:23:45.977Z</time></trkpt><trkpt lat="45.70217671653011" lon="9.248959159122304"><ele>305.0</ele><time>2026-04-10T18:23:49.979Z</time></trkpt><trkpt lat="45.702107965901114" lon="9.249009614521123"><ele>305.0</ele><time>2026-04-10T18:23:52.979Z</time></trkpt><trkpt lat="45.70203505770266" lon="9.249041285427902"><ele>305.0</ele><time>2026-04-10T18:23:55.979Z</time></trkpt><trkpt lat="45.701953053114224" lon="9.249112741567547"><ele>305.0</ele><time>2026-04-10T18:23:58.98Z</time></trkpt><trkpt lat="45.701882547184056" lon="9.249163621764199"><ele>305.0</ele><time>2026-04-10T18:24:01.98Z</time></trkpt><trkpt lat="45.70182839635373" lon="9.249224454982963"><ele>304.2857142857143</ele><time>2026-04-10T18:24:03.98Z</time></trkpt><trkpt lat="45.70182172729334" lon="9.249322051919956"><ele>303.57142857142856</ele><time>2026-04-10T18:24:07.98Z</time></trkpt><trkpt lat="45.70187717286315" lon="9.249367328258938"><ele>302.85714285714283</ele><time>2026-04-10T18:24:11.98Z</time></trkpt><trkpt lat="45.7019449146981" lon="9.249385402656868"><ele>302.1428571428571</ele><time>2026-04-10T18:24:14.98Z</time></trkpt><trkpt lat="45.702015803731754" lon="9.24941207076675"><ele>301.42857142857144</ele><time>2026-04-10T18:24:17.98Z</time></trkpt><trkpt lat="45.70209326477069" lon="9.249402229228446"><ele>300.71428571428567</ele><time>2026-04-10T18:24:20.979Z</time></trkpt><trkpt lat="45.70215247895099" lon="9.249486734795886"><ele>300.0</ele><time>2026-04-10T18:24:23.979Z</time></trkpt><trkpt lat="45.70217194140399" lon="9.24961312871111"><ele>300.0</ele><time>2026-04-10T18:24:26.979Z</time></trkpt><trkpt lat="45.70215690442627" lon="9.249738966996413"><ele>300.0</ele><time>2026-04-10T18:24:29.979Z</time></trkpt><trkpt lat="45.70217015379741" lon="9.249832003390333"><ele>300.0</ele><time>2026-04-10T18:24:31.979Z</time></trkpt><trkpt lat="45.7021812954297" lon="9.24993729393651"><ele>300.0</ele><time>2026-04-10T18:24:36.979Z</time></trkpt><trkpt lat="45.70214471683126" lon="9.250017914812906"><ele>300.0</ele><time>2026-04-10T18:24:39.979Z</time></trkpt><trkpt lat="45.7021133609003" lon="9.25009864029189"><ele>300.0</ele><time>2026-04-10T18:24:41.979Z</time></trkpt><trkpt lat="45.70206278284995" lon="9.250203655783437"><ele>298.0</ele><time>2026-04-10T18:24:44.979Z</time></trkpt><trkpt lat="45.70208551805968" lon="9.250324183621016"><ele>296.0</ele><time>2026-04-10T18:24:46.979Z</time></trkpt><trkpt lat="45.70215731486968" lon="9.25040053675543"><ele>294.0</ele><time>2026-04-10T18:24:48.979Z</time></trkpt><trkpt lat="45.70221567236839" lon="9.250435949131603"><ele>292.0</ele><time>2026-04-10T18:24:50.979Z</time></trkpt><trkpt lat="45.70228014733489" lon="9.250470687942444"><ele>290.0</ele><time>2026-04-10T18:24:53.979Z</time></trkpt><trkpt lat="45.70236128601738" lon="9.250526271778437"><ele>288.0</ele><time>2026-04-10T18:24:56.979Z</time></trkpt><trkpt lat="45.702427722828816" lon="9.25055932306585"><ele>288.0</ele><time>2026-04-10T18:24:59.979Z</time></trkpt><trkpt lat="45.70250581170229" lon="9.25059608896176"><ele>288.0</ele><time>2026-04-10T18:25:03.979Z</time></trkpt><trkpt lat="45.702582806515025" lon="9.250625323807498"><ele>288.0</ele><time>2026-04-10T18:25:07.979Z</time></trkpt><trkpt lat="45.70266270607357" lon="9.250648893814661"><ele>288.0</ele><time>2026-04-10T18:25:11.979Z</time></trkpt><trkpt lat="45.70274187439217" lon="9.250654511857677"><ele>288.0</ele><time>2026-04-10T18:25:15.978Z</time></trkpt><trkpt lat="45.70282152647496" lon="9.250661803399083"><ele>288.0</ele><time>2026-04-10T18:25:19.978Z</time></trkpt><trkpt lat="45.702892463853466" lon="9.25069031999041"><ele>288.7142857142857</ele><time>2026-04-10T18:25:22.978Z</time></trkpt><trkpt lat="45.70295837414534" lon="9.250688956172544"><ele>289.42857142857144</ele><time>2026-04-10T18:25:25.978Z</time></trkpt><trkpt lat="45.7030228220435" lon="9.250710042520444"><ele>290.1428571428571</ele><time>2026-04-10T18:25:28.978Z</time></trkpt><trkpt lat="45.70308830067587" lon="9.250703504689232"><ele>290.8571428571429</ele><time>2026-04-10T18:25:31.978Z</time></trkpt><trkpt lat="45.703160369862324" lon="9.250714264793434"><ele>291.57142857142856</ele><time>2026-04-10T18:25:35.978Z</time></trkpt><trkpt lat="45.70322505291536" lon="9.25071911029176"><ele>292.2857142857143</ele><time>2026-04-10T18:25:38.978Z</time></trkpt><trkpt lat="45.70328870615798" lon="9.250715354072787"><ele>293.0</ele><time>2026-04-10T18:25:42.978Z</time></trkpt><trkpt lat="45.70336132670577" lon="9.250707057944041"><ele>293.0</ele><time>2026-04-10T18:25:45.978Z</time></trkpt><trkpt lat="45.703437300354345" lon="9.250710490862799"><ele>293.0</ele><time>2026-04-10T18:25:48.978Z</time></trkpt><trkpt lat="45.703500167437255" lon="9.250719897848562"><ele>293.0</ele><time>2026-04-10T18:25:51.978Z</time></trkpt><trkpt lat="45.70357933828792" lon="9.25074031023474"><ele>293.0</ele><time>2026-04-10T18:25:54.98Z</time></trkpt><trkpt lat="45.703646351433925" lon="9.250766818163628"><ele>293.0</ele><time>2026-04-10T18:25:57.98Z</time></trkpt><trkpt lat="45.70371973151801" lon="9.250793790410562"><ele>293.0</ele><time>2026-04-10T18:26:00.98Z</time></trkpt><trkpt lat="45.70380318456574" lon="9.250815748952876"><ele>292.5</ele><time>2026-04-10T18:26:03.98Z</time></trkpt><trkpt lat="45.703878155844556" lon="9.25086124525502"><ele>292.0</ele><time>2026-04-10T18:26:06.98Z</time></trkpt><trkpt lat="45.703948437855644" lon="9.250883962669155"><ele>291.5</ele><time>2026-04-10T18:26:09.98Z</time></trkpt><trkpt lat="45.70402961795605" lon="9.250948983935645"><ele>291.0</ele><time>2026-04-10T18:26:12.98Z</time></trkpt><trkpt lat="45.70409424194374" lon="9.250984326058383"><ele>290.5</ele><time>2026-04-10T18:26:15.98Z</time></trkpt><trkpt lat="45.704162551985256" lon="9.251047312041749"><ele>290.0</ele><time>2026-04-10T18:26:18.98Z</time></trkpt><trkpt lat="45.704219944529406" lon="9.251095190174832"><ele>290.0</ele><time>2026-04-10T18:26:21.98Z</time></trkpt><trkpt lat="45.704275088969894" lon="9.251145905842542"><ele>290.0</ele><time>2026-04-10T18:26:24.98Z</time></trkpt><trkpt lat="45.704349276044546" lon="9.251193319900887"><ele>290.0</ele><time>2026-04-10T18:26:27.98Z</time></trkpt><trkpt lat="45.70442249419548" lon="9.251229664671424"><ele>290.0</ele><time>2026-04-10T18:26:30.98Z</time></trkpt><trkpt lat="45.7045132841951" lon="9.251262071016178"><ele>290.0</ele><time>2026-04-10T18:26:33.98Z</time></trkpt><trkpt lat="45.70457685317496" lon="9.25128861508859"><ele>290.0</ele><time>2026-04-10T18:26:35.98Z</time></trkpt><trkpt lat="45.704638633455815" lon="9.251318719342233"><ele>290.0</ele><time>2026-04-10T18:26:37.98Z</time></trkpt><trkpt lat="45.70475730467953" lon="9.25134369676102"><ele>289.57142857142856</ele><time>2026-04-10T18:26:41.98Z</time></trkpt><trkpt lat="45.7048299274686" lon="9.251354760754325"><ele>289.14285714285717</ele><time>2026-04-10T18:26:43.979Z</time></trkpt><trkpt lat="45.7048994107263" lon="9.251372701814622"><ele>288.7142857142857</ele><time>2026-04-10T18:26:45.979Z</time></trkpt><trkpt lat="45.70497924914984" lon="9.251398329518267"><ele>288.2857142857143</ele><time>2026-04-10T18:26:47.979Z</time></trkpt><trkpt lat="45.70504673005172" lon="9.251424274164746"><ele>287.8571428571429</ele><time>2026-04-10T18:26:49.979Z</time></trkpt><trkpt lat="45.705120212915354" lon="9.25144258962157"><ele>287.42857142857144</ele><time>2026-04-10T18:26:51.979Z</time></trkpt><trkpt lat="45.70518880598842" lon="9.251465099505964"><ele>287.0</ele><time>2026-04-10T18:26:53.979Z</time></trkpt><trkpt lat="45.70526228401431" lon="9.251489039210131"><ele>286.7142857142857</ele><time>2026-04-10T18:26:55.979Z</time></trkpt><trkpt lat="45.70533053818073" lon="9.251516689632684"><ele>286.42857142857144</ele><time>2026-04-10T18:26:57.979Z</time></trkpt><trkpt lat="45.705400093723384" lon="9.251537664905172"><ele>286.1428571428571</ele><time>2026-04-10T18:26:59.979Z</time></trkpt><trkpt lat="45.70547423246707" lon="9.251555085719344"><ele>285.8571428571429</ele><time>2026-04-10T18:27:01.979Z</time></trkpt><trkpt lat="45.705541524023104" lon="9.251584447760033"><ele>285.57142857142856</ele><time>2026-04-10T18:27:03.979Z</time></trkpt><trkpt lat="45.70561013079272" lon="9.251604692832391"><ele>285.2857142857143</ele><time>2026-04-10T18:27:05.979Z</time></trkpt><trkpt lat="45.70567717855819" lon="9.251636263982043"><ele>285.0</ele><time>2026-04-10T18:27:07.979Z</time></trkpt><trkpt lat="45.70574811517991" lon="9.25165791806812"><ele>285.0</ele><time>2026-04-10T18:27:09.979Z</time></trkpt><trkpt lat="45.70580924629037" lon="9.251732161783657"><ele>285.0</ele><time>2026-04-10T18:27:11.979Z</time></trkpt><trkpt lat="45.70586213745681" lon="9.251807565084613"><ele>285.0</ele><time>2026-04-10T18:27:13.979Z</time></trkpt><trkpt lat="45.70589443167323" lon="9.25190727148535"><ele>285.0</ele><time>2026-04-10T18:27:15.979Z</time></trkpt><trkpt lat="45.70591925708334" lon="9.251994661180909"><ele>285.0</ele><time>2026-04-10T18:27:17.979Z</time></trkpt><trkpt lat="45.705959130650804" lon="9.252116516848456"><ele>285.0</ele><time>2026-04-10T18:27:20.979Z</time></trkpt><trkpt lat="45.706002835185856" lon="9.252184739945239"><ele>285.0</ele><time>2026-04-10T18:27:22.979Z</time></trkpt><trkpt lat="45.706063059569956" lon="9.252212630088406"><ele>285.0</ele><time>2026-04-10T18:27:24.979Z</time></trkpt><trkpt lat="45.70614260566047" lon="9.25221859664248"><ele>285.0</ele><time>2026-04-10T18:27:27.979Z</time></trkpt><trkpt lat="45.70622287054791" lon="9.252223467522589"><ele>285.0</ele><time>2026-04-10T18:27:30.979Z</time></trkpt><trkpt lat="45.70631283204964" lon="9.252241117574687"><ele>285.0</ele><time>2026-04-10T18:27:33.979Z</time></trkpt><trkpt lat="45.7063990693735" lon="9.25224953527714"><ele>285.0</ele><time>2026-04-10T18:27:36.978Z</time></trkpt><trkpt lat="45.7064819577143" lon="9.252259947254666"><ele>285.2857142857143</ele><time>2026-04-10T18:27:39.978Z</time></trkpt><trkpt lat="45.70654698147478" lon="9.25227129392841"><ele>285.57142857142856</ele><time>2026-04-10T18:27:41.978Z</time></trkpt><trkpt lat="45.70661293312855" lon="9.25229437466179"><ele>285.8571428571429</ele><time>2026-04-10T18:27:43.978Z</time></trkpt><trkpt lat="45.70669930186384" lon="9.252328120854978"><ele>286.1428571428571</ele><time>2026-04-10T18:27:46.978Z</time></trkpt><trkpt lat="45.70674186290525" lon="9.25239571932769"><ele>286.42857142857144</ele><time>2026-04-10T18:27:49.978Z</time></trkpt><trkpt lat="45.706774091447876" lon="9.252481488465166"><ele>286.7142857142857</ele><time>2026-04-10T18:27:52.978Z</time></trkpt><trkpt lat="45.70679288522466" lon="9.252598074604771"><ele>287.0</ele><time>2026-04-10T18:27:55.978Z</time></trkpt><trkpt lat="45.70681512418514" lon="9.252687588851636"><ele>287.14285714285717</ele><time>2026-04-10T18:27:58.978Z</time></trkpt><trkpt lat="45.70683519436126" lon="9.252778588330164"><ele>287.2857142857143</ele><time>2026-04-10T18:28:01.981Z</time></trkpt><trkpt lat="45.70683629252239" lon="9.252874128886083"><ele>287.42857142857144</ele><time>2026-04-10T18:28:04.981Z</time></trkpt><trkpt lat="45.70686266625548" lon="9.252964902862033"><ele>287.57142857142856</ele><time>2026-04-10T18:28:08.98Z</time></trkpt><trkpt lat="45.70687736972592" lon="9.253072429543936"><ele>287.7142857142857</ele><time>2026-04-10T18:28:12.981Z</time></trkpt><trkpt lat="45.70692421789861" lon="9.253134201799064"><ele>287.8571428571429</ele><time>2026-04-10T18:28:15.981Z</time></trkpt><trkpt lat="45.70700810332735" lon="9.253147033540756"><ele>288.0</ele><time>2026-04-10T18:28:18.981Z</time></trkpt><trkpt lat="45.70706153538269" lon="9.25324786602933"><ele>288.0</ele><time>2026-04-10T18:28:21.981Z</time></trkpt><trkpt lat="45.70704542478534" lon="9.253363489405976"><ele>288.0</ele><time>2026-04-10T18:28:24.981Z</time></trkpt><trkpt lat="45.706998775686195" lon="9.253433129029187"><ele>288.0</ele><time>2026-04-10T18:28:26.981Z</time></trkpt><trkpt lat="45.70695924098521" lon="9.253535182073321"><ele>288.0</ele><time>2026-04-10T18:28:29.981Z</time></trkpt><trkpt lat="45.70690110559004" lon="9.253615002242636"><ele>288.0</ele><time>2026-04-10T18:28:32.98Z</time></trkpt><trkpt lat="45.70685497296238" lon="9.25369177179771"><ele>288.0</ele><time>2026-04-10T18:28:35.98Z</time></trkpt><trkpt lat="45.706811752115904" lon="9.253766211651843"><ele>288.0</ele><time>2026-04-10T18:28:38.98Z</time></trkpt><trkpt lat="45.70677041190733" lon="9.253847086029642"><ele>288.0</ele><time>2026-04-10T18:28:41.98Z</time></trkpt><trkpt lat="45.706742153684516" lon="9.253952777334115"><ele>288.0</ele><time>2026-04-10T18:28:44.98Z</time></trkpt><trkpt lat="45.70674177486968" lon="9.254043490742866"><ele>288.0</ele><time>2026-04-10T18:28:46.98Z</time></trkpt><trkpt lat="45.70674711925844" lon="9.25417141328234"><ele>288.0</ele><time>2026-04-10T18:28:49.98Z</time></trkpt><trkpt lat="45.70674797632417" lon="9.254264283979415"><ele>288.0</ele><time>2026-04-10T18:28:51.98Z</time></trkpt><trkpt lat="45.70675705971516" lon="9.254390368873844"><ele>287.7142857142857</ele><time>2026-04-10T18:28:54.98Z</time></trkpt><trkpt lat="45.70675738143003" lon="9.254482076089937"><ele>287.42857142857144</ele><time>2026-04-10T18:28:56.98Z</time></trkpt><trkpt lat="45.706751787978135" lon="9.254573405463836"><ele>287.1428571428571</ele><time>2026-04-10T18:28:58.98Z</time></trkpt><trkpt lat="45.70675274214723" lon="9.254699003787456"><ele>286.8571428571429</ele><time>2026-04-10T18:29:01.98Z</time></trkpt><trkpt lat="45.706742349734334" lon="9.254822127430275"><ele>286.57142857142856</ele><time>2026-04-10T18:29:04.98Z</time></trkpt><trkpt lat="45.7067388314943" lon="9.254916846364445"><ele>286.2857142857143</ele><time>2026-04-10T18:29:06.98Z</time></trkpt><trkpt lat="45.70673477867483" lon="9.25500949524589"><ele>286.0</ele><time>2026-04-10T18:29:08.98Z</time></trkpt><trkpt lat="45.70673292045806" lon="9.255147579604284"><ele>285.99999999999994</ele><time>2026-04-10T18:29:11.98Z</time></trkpt><trkpt lat="45.70672269218817" lon="9.255239048883213"><ele>286.0</ele><time>2026-04-10T18:29:13.98Z</time></trkpt><trkpt lat="45.706712456003224" lon="9.255364392660583"><ele>286.0</ele><time>2026-04-10T18:29:16.98Z</time></trkpt><trkpt lat="45.70671481698208" lon="9.255458265355541"><ele>286.0</ele><time>2026-04-10T18:29:18.98Z</time></trkpt><trkpt lat="45.706716457498715" lon="9.25555078206017"><ele>286.0</ele><time>2026-04-10T18:29:20.98Z</time></trkpt><trkpt lat="45.70672964680722" lon="9.255643293876949"><ele>285.99999999999994</ele><time>2026-04-10T18:29:22.98Z</time></trkpt><trkpt lat="45.70672886756212" lon="9.255740123221923"><ele>286.0</ele><time>2026-04-10T18:29:24.98Z</time></trkpt><trkpt lat="45.70672811489291" lon="9.255840696788631"><ele>285.99999999999994</ele><time>2026-04-10T18:29:26.979Z</time></trkpt><trkpt lat="45.706745482399164" lon="9.2559432089658"><ele>286.0</ele><time>2026-04-10T18:29:28.979Z</time></trkpt><trkpt lat="45.70680211064151" lon="9.256001614123193"><ele>286.0</ele><time>2026-04-10T18:29:30.979Z</time></trkpt><trkpt lat="45.70687145897222" lon="9.256019570596827"><ele>286.0</ele><time>2026-04-10T18:29:32.979Z</time></trkpt><trkpt lat="45.70693350510332" lon="9.25604259033134"><ele>286.0</ele><time>2026-04-10T18:29:34.979Z</time></trkpt><trkpt lat="45.706995073613434" lon="9.256073770852364"><ele>285.99999999999994</ele><time>2026-04-10T18:29:36.979Z</time></trkpt><trkpt lat="45.70705690382006" lon="9.2560987652782"><ele>286.0</ele><time>2026-04-10T18:29:38.979Z</time></trkpt><trkpt lat="45.70711414073337" lon="9.256146351579021"><ele>285.66666666666663</ele><time>2026-04-10T18:29:40.979Z</time></trkpt><trkpt lat="45.70719742178853" lon="9.256188604407711"><ele>285.3333333333333</ele><time>2026-04-10T18:29:43.979Z</time></trkpt><trkpt lat="45.70725790706774" lon="9.256221309125184"><ele>285.0</ele><time>2026-04-10T18:29:45.979Z</time></trkpt><trkpt lat="45.707342232682905" lon="9.25627952351115"><ele>284.6666666666667</ele><time>2026-04-10T18:29:48.979Z</time></trkpt><trkpt lat="45.70742113948203" lon="9.256325519586166"><ele>284.33333333333337</ele><time>2026-04-10T18:29:51.979Z</time></trkpt><trkpt lat="45.70750646352665" lon="9.25636315294364"><ele>284.0</ele><time>2026-04-10T18:29:54.979Z</time></trkpt><trkpt lat="45.70758753993876" lon="9.256369301484673"><ele>284.0</ele><time>2026-04-10T18:29:58.979Z</time></trkpt><trkpt lat="45.70764863091351" lon="9.256312835967474"><ele>284.0</ele><time>2026-04-10T18:30:01.979Z</time></trkpt><trkpt lat="45.707702420198736" lon="9.256258909282549"><ele>284.0</ele><time>2026-04-10T18:30:04.979Z</time></trkpt><trkpt lat="45.70776021565632" lon="9.256209227448272"><ele>284.0</ele><time>2026-04-10T18:30:07.982Z</time></trkpt><trkpt lat="45.70781723077399" lon="9.25615356299626"><ele>284.0</ele><time>2026-04-10T18:30:10.982Z</time></trkpt><trkpt lat="45.70788546845784" lon="9.256112770802705"><ele>284.0</ele><time>2026-04-10T18:30:13.982Z</time></trkpt><trkpt lat="45.707934220676485" lon="9.25604121641054"><ele>284.0</ele><time>2026-04-10T18:30:16.981Z</time></trkpt><trkpt lat="45.707985913087384" lon="9.255944488862829"><ele>283.83333333333337</ele><time>2026-04-10T18:30:19.981Z</time></trkpt><trkpt lat="45.708053370854515" lon="9.255848908777239"><ele>283.6666666666667</ele><time>2026-04-10T18:30:22.981Z</time></trkpt><trkpt lat="45.7081266749534" lon="9.255761019358784"><ele>283.5</ele><time>2026-04-10T18:30:25.981Z</time></trkpt><trkpt lat="45.708164729012836" lon="9.255672674211525"><ele>283.3333333333333</ele><time>2026-04-10T18:30:27.981Z</time></trkpt><trkpt lat="45.70821488457418" lon="9.255617989734208"><ele>283.16666666666663</ele><time>2026-04-10T18:30:29.981Z</time></trkpt><trkpt lat="45.70825691775081" lon="9.255543493174908"><ele>283.0</ele><time>2026-04-10T18:30:31.981Z</time></trkpt><trkpt lat="45.70831043616096" lon="9.255481180144194"><ele>282.8571428571429</ele><time>2026-04-10T18:30:33.981Z</time></trkpt><trkpt lat="45.70835210159773" lon="9.255409487596598"><ele>282.7142857142857</ele><time>2026-04-10T18:30:35.981Z</time></trkpt><trkpt lat="45.708404809312405" lon="9.25535800204619"><ele>282.57142857142856</ele><time>2026-04-10T18:30:37.981Z</time></trkpt><trkpt lat="45.70846229933786" lon="9.255289804750443"><ele>282.42857142857144</ele><time>2026-04-10T18:30:39.981Z</time></trkpt><trkpt lat="45.7085132999327" lon="9.25520117433998"><ele>282.2857142857143</ele><time>2026-04-10T18:30:41.981Z</time></trkpt><trkpt lat="45.70857613041774" lon="9.255123221829436"><ele>282.14285714285717</ele><time>2026-04-10T18:30:43.981Z</time></trkpt><trkpt lat="45.70864125781229" lon="9.255065368318718"><ele>282.0</ele><time>2026-04-10T18:30:45.981Z</time></trkpt><trkpt lat="45.70869676418301" lon="9.255012885006197"><ele>281.6666666666667</ele><time>2026-04-10T18:30:47.981Z</time></trkpt><trkpt lat="45.70875982219903" lon="9.2549380469763"><ele>281.3333333333333</ele><time>2026-04-10T18:30:49.981Z</time></trkpt><trkpt lat="45.70883921218615" lon="9.254914166605072"><ele>281.0</ele><time>2026-04-10T18:30:51.981Z</time></trkpt><trkpt lat="45.70892906981592" lon="9.254889357404313"><ele>280.66666666666663</ele><time>2026-04-10T18:30:54.981Z</time></trkpt><trkpt lat="45.708997116928195" lon="9.254880656135091"><ele>280.3333333333333</ele><time>2026-04-10T18:30:56.98Z</time></trkpt><trkpt lat="45.70906646718082" lon="9.25489221770445"><ele>280.0</ele><time>2026-04-10T18:30:58.98Z</time></trkpt><trkpt lat="45.7091379527754" lon="9.254899702478713"><ele>280.0</ele><time>2026-04-10T18:31:00.98Z</time></trkpt><trkpt lat="45.70920151336546" lon="9.254913931673968"><ele>280.0</ele><time>2026-04-10T18:31:02.98Z</time></trkpt><trkpt lat="45.70926382819893" lon="9.25493854865334"><ele>280.0</ele><time>2026-04-10T18:31:04.98Z</time></trkpt><trkpt lat="45.709330235353754" lon="9.254959034119347"><ele>280.0</ele><time>2026-04-10T18:31:06.98Z</time></trkpt><trkpt lat="45.709403776653836" lon="9.254969148876386"><ele>280.0</ele><time>2026-04-10T18:31:08.98Z</time></trkpt><trkpt lat="45.7094824616714" lon="9.254948427019025"><ele>280.0</ele><time>2026-04-10T18:31:10.98Z</time></trkpt><trkpt lat="45.709542288661716" lon="9.25490404546274"><ele>280.0</ele><time>2026-04-10T18:31:12.98Z</time></trkpt><trkpt lat="45.70961023514707" lon="9.254873806081228"><ele>279.57142857142856</ele><time>2026-04-10T18:31:14.98Z</time></trkpt><trkpt lat="45.709684977557885" lon="9.25486192101184"><ele>279.1428571428571</ele><time>2026-04-10T18:31:16.98Z</time></trkpt><trkpt lat="45.70977452235337" lon="9.254853553602631"><ele>278.7142857142857</ele><time>2026-04-10T18:31:19.98Z</time></trkpt><trkpt lat="45.70983948442489" lon="9.254836008669399"><ele>278.2857142857143</ele><time>2026-04-10T18:31:21.98Z</time></trkpt><trkpt lat="45.70990369331574" lon="9.254840529099647"><ele>277.85714285714283</ele><time>2026-04-10T18:31:23.98Z</time></trkpt><trkpt lat="45.70996628522977" lon="9.25481900616387"><ele>277.42857142857144</ele><time>2026-04-10T18:31:25.98Z</time></trkpt><trkpt lat="45.71002751751343" lon="9.254781870833789"><ele>277.0</ele><time>2026-04-10T18:31:27.98Z</time></trkpt><trkpt lat="45.71009696181676" lon="9.254753202331127"><ele>277.0</ele><time>2026-04-10T18:31:29.98Z</time></trkpt><trkpt lat="45.710167183346904" lon="9.254730841741152"><ele>277.0</ele><time>2026-04-10T18:31:31.98Z</time></trkpt><trkpt lat="45.71023304738394" lon="9.254714366912289"><ele>277.0</ele><time>2026-04-10T18:31:33.98Z</time></trkpt><trkpt lat="45.710304887657074" lon="9.254707646076884"><ele>277.0</ele><time>2026-04-10T18:31:35.98Z</time></trkpt><trkpt lat="45.71037385507154" lon="9.254693844358195"><ele>277.0</ele><time>2026-04-10T18:31:37.98Z</time></trkpt><trkpt lat="45.71044411310661" lon="9.254697157550975"><ele>277.0</ele><time>2026-04-10T18:31:39.98Z</time></trkpt><trkpt lat="45.710510488623044" lon="9.254699815074925"><ele>277.0</ele><time>2026-04-10T18:31:41.98Z</time></trkpt><trkpt lat="45.710575076564126" lon="9.254709736168081"><ele>276.8333333333333</ele><time>2026-04-10T18:31:43.98Z</time></trkpt><trkpt lat="45.7106364367327" lon="9.254730838408571"><ele>276.66666666666663</ele><time>2026-04-10T18:31:45.98Z</time></trkpt><trkpt lat="45.71070354987714" lon="9.25472754280731"><ele>276.5</ele><time>2026-04-10T18:31:47.98Z</time></trkpt><trkpt lat="45.71079580473533" lon="9.25475396272555"><ele>276.3333333333333</ele><time>2026-04-10T18:31:50.979Z</time></trkpt><trkpt lat="45.710858873997545" lon="9.254774702224596"><ele>276.1666666666667</ele><time>2026-04-10T18:31:52.979Z</time></trkpt><trkpt lat="45.71094243129497" lon="9.254803841734164"><ele>276.0</ele><time>2026-04-10T18:31:55.979Z</time></trkpt><trkpt lat="45.71102617248113" lon="9.254853957742133"><ele>275.8333333333333</ele><time>2026-04-10T18:31:58.979Z</time></trkpt><trkpt lat="45.711102539951476" lon="9.25490942966079"><ele>275.6666666666667</ele><time>2026-04-10T18:32:01.979Z</time></trkpt><trkpt lat="45.711166293304814" lon="9.254981626325568"><ele>275.5</ele><time>2026-04-10T18:32:04.979Z</time></trkpt><trkpt lat="45.7112255201877" lon="9.255029614142355"><ele>275.33333333333337</ele><time>2026-04-10T18:32:07.979Z</time></trkpt><trkpt lat="45.711278367520684" lon="9.255087044622826"><ele>275.1666666666667</ele><time>2026-04-10T18:32:10.979Z</time></trkpt><trkpt lat="45.7113417908645" lon="9.255139693141603"><ele>275.0</ele><time>2026-04-10T18:32:13.982Z</time></trkpt><trkpt lat="45.711392043593776" lon="9.25522283068602"><ele>275.0</ele><time>2026-04-10T18:32:16.983Z</time></trkpt><trkpt lat="45.711425619633296" lon="9.255324292207112"><ele>275.0</ele><time>2026-04-10T18:32:19.982Z</time></trkpt><trkpt lat="45.711448860998296" lon="9.25541897984016"><ele>275.0</ele><time>2026-04-10T18:32:22.982Z</time></trkpt><trkpt lat="45.7114628105027" lon="9.255509930627234"><ele>275.0</ele><time>2026-04-10T18:32:24.982Z</time></trkpt><trkpt lat="45.71147465960421" lon="9.255600738395215"><ele>275.0</ele><time>2026-04-10T18:32:26.982Z</time></trkpt><trkpt lat="45.711480197148845" lon="9.255724267184068"><ele>275.0</ele><time>2026-04-10T18:32:29.982Z</time></trkpt><trkpt lat="45.711492740495956" lon="9.25585098154241"><ele>275.33333333333337</ele><time>2026-04-10T18:32:32.982Z</time></trkpt><trkpt lat="45.711495120637096" lon="9.2559700489689"><ele>275.6666666666667</ele><time>2026-04-10T18:32:35.981Z</time></trkpt><trkpt lat="45.71149833342708" lon="9.256089045275285"><ele>276.0</ele><time>2026-04-10T18:32:38.981Z</time></trkpt><trkpt lat="45.71148161186611" lon="9.25620755705361"><ele>276.3333333333333</ele><time>2026-04-10T18:32:41.981Z</time></trkpt><trkpt lat="45.711466187833594" lon="9.256321725084089"><ele>276.66666666666663</ele><time>2026-04-10T18:32:44.981Z</time></trkpt><trkpt lat="45.71144200771759" lon="9.256429588829146"><ele>277.0</ele><time>2026-04-10T18:32:47.981Z</time></trkpt><trkpt lat="45.711508602610856" lon="9.256472803235157"><ele>277.0</ele><time>2026-04-10T18:32:51.981Z</time></trkpt><trkpt lat="45.711560356313164" lon="9.256413465465407"><ele>277.0</ele><time>2026-04-10T18:32:54.98Z</time></trkpt><trkpt lat="45.7115924442882" lon="9.256315541290089"><ele>277.0</ele><time>2026-04-10T18:32:58.98Z</time></trkpt><trkpt lat="45.71159836720159" lon="9.256209881360425"><ele>277.0</ele><time>2026-04-10T18:33:01.979Z</time></trkpt><trkpt lat="45.71162534614959" lon="9.256115460550472"><ele>277.0</ele><time>2026-04-10T18:33:04.979Z</time></trkpt><trkpt lat="45.71169543191862" lon="9.256047278752611"><ele>277.0</ele><time>2026-04-10T18:33:07.979Z</time></trkpt><trkpt lat="45.711751659752814" lon="9.255992832289134"><ele>277.0</ele><time>2026-04-10T18:33:10.979Z</time></trkpt><trkpt lat="45.71181675733527" lon="9.25595716191226"><ele>277.0</ele><time>2026-04-10T18:33:13.979Z</time></trkpt><trkpt lat="45.7118826954715" lon="9.25598682001858"><ele>277.0</ele><time>2026-04-10T18:33:16.979Z</time></trkpt><trkpt lat="45.7119326869246" lon="9.255923276840207"><ele>277.0</ele><time>2026-04-10T18:33:21.978Z</time></trkpt><trkpt lat="45.71199825578702" lon="9.255882713692536"><ele>277.0</ele><time>2026-04-10T18:33:27.978Z</time></trkpt><trkpt lat="45.712034267280764" lon="9.255792820267308"><ele>277.0</ele><time>2026-04-10T18:33:32.978Z</time></trkpt><trkpt lat="45.71209160852621" lon="9.255741556813055"><ele>277.0</ele><time>2026-04-10T18:33:38.978Z</time></trkpt><trkpt lat="45.71213402766355" lon="9.255650829174883"><ele>277.0</ele><time>2026-04-10T18:33:42.978Z</time></trkpt><trkpt lat="45.71217420673" lon="9.255559886124544"><ele>275.8333333333333</ele><time>2026-04-10T18:33:46.978Z</time></trkpt><trkpt lat="45.712209260004464" lon="9.255451702932787"><ele>274.66666666666663</ele><time>2026-04-10T18:33:50.977Z</time></trkpt><trkpt lat="45.712246719949086" lon="9.255370209179357"><ele>273.5</ele><time>2026-04-10T18:33:53.977Z</time></trkpt><trkpt lat="45.71232074813458" lon="9.255285599683235"><ele>272.3333333333333</ele><time>2026-04-10T18:33:56.977Z</time></trkpt><trkpt lat="45.71238481039358" lon="9.255194484112732"><ele>271.1666666666667</ele><time>2026-04-10T18:33:59.977Z</time></trkpt><trkpt lat="45.71245521830926" lon="9.255124155817624"><ele>270.0</ele><time>2026-04-10T18:34:02.977Z</time></trkpt><trkpt lat="45.71250556764506" lon="9.255045925934095"><ele>270.0</ele><time>2026-04-10T18:34:04.977Z</time></trkpt><trkpt lat="45.71254682022217" lon="9.254960905827355"><ele>270.0</ele><time>2026-04-10T18:34:06.977Z</time></trkpt><trkpt lat="45.71259221674108" lon="9.254891912378891"><ele>270.0</ele><time>2026-04-10T18:34:08.977Z</time></trkpt><trkpt lat="45.712622606772" lon="9.254795809276605"><ele>270.0</ele><time>2026-04-10T18:34:11.977Z</time></trkpt><trkpt lat="45.712634799461895" lon="9.254662329761183"><ele>270.0</ele><time>2026-04-10T18:34:14.977Z</time></trkpt><trkpt lat="45.712639719216654" lon="9.254529841721546"><ele>270.0</ele><time>2026-04-10T18:34:17.98Z</time></trkpt><trkpt lat="45.712650564583754" lon="9.254411751076054"><ele>269.57142857142856</ele><time>2026-04-10T18:34:20.98Z</time></trkpt><trkpt lat="45.712669548137974" lon="9.254310451307793"><ele>269.1428571428571</ele><time>2026-04-10T18:34:23.98Z</time></trkpt><trkpt lat="45.71265395912221" lon="9.254191950494313"><ele>268.7142857142857</ele><time>2026-04-10T18:34:27.98Z</time></trkpt><trkpt lat="45.712654700183606" lon="9.254095624457381"><ele>268.2857142857143</ele><time>2026-04-10T18:34:30.98Z</time></trkpt><trkpt lat="45.71264151216142" lon="9.254003693221186"><ele>267.8571428571429</ele><time>2026-04-10T18:34:33.98Z</time></trkpt><trkpt lat="45.71259750694798" lon="9.253922175542877"><ele>267.42857142857144</ele><time>2026-04-10T18:34:36.98Z</time></trkpt><trkpt lat="45.71255034774767" lon="9.253841984641037"><ele>267.0</ele><time>2026-04-10T18:34:39.98Z</time></trkpt><trkpt lat="45.71251555098245" lon="9.25374060569626"><ele>266.5714285714286</ele><time>2026-04-10T18:34:43.979Z</time></trkpt><trkpt lat="45.712468915383084" lon="9.253656417927106"><ele>266.14285714285717</ele><time>2026-04-10T18:34:47.979Z</time></trkpt><trkpt lat="45.71241214375205" lon="9.253581734363971"><ele>265.7142857142857</ele><time>2026-04-10T18:34:50.979Z</time></trkpt><trkpt lat="45.71235759464095" lon="9.253507357317835"><ele>265.28571428571433</ele><time>2026-04-10T18:34:53.979Z</time></trkpt><trkpt lat="45.71231844238911" lon="9.253434624713119"><ele>264.8571428571429</ele><time>2026-04-10T18:34:57.979Z</time></trkpt><trkpt lat="45.71225927772917" lon="9.253381002912105"><ele>264.42857142857144</ele><time>2026-04-10T18:35:01.979Z</time></trkpt><trkpt lat="45.71221288117097" lon="9.25331991503268"><ele>264.0</ele><time>2026-04-10T18:35:09.979Z</time></trkpt><trkpt lat="45.712269982773705" lon="9.25324442704732"><ele>264.0</ele><time>2026-04-10T18:35:14.979Z</time></trkpt><trkpt lat="45.71232946873444" lon="9.253155841169388"><ele>264.0</ele><time>2026-04-10T18:35:17.979Z</time></trkpt><trkpt lat="45.712376042220335" lon="9.253092680264258"><ele>264.0</ele><time>2026-04-10T18:35:19.979Z</time></trkpt><trkpt lat="45.71242536221833" lon="9.253031147885762"><ele>264.0</ele><time>2026-04-10T18:35:21.979Z</time></trkpt><trkpt lat="45.71248403172815" lon="9.252976277775305"><ele>264.0</ele><time>2026-04-10T18:35:23.979Z</time></trkpt><trkpt lat="45.712560738970446" lon="9.25290919352606"><ele>264.0</ele><time>2026-04-10T18:35:26.979Z</time></trkpt><trkpt lat="45.71260904503537" lon="9.252849444448263"><ele>264.0</ele><time>2026-04-10T18:35:28.979Z</time></trkpt><trkpt lat="45.71266054902543" lon="9.252794905867097"><ele>264.0</ele><time>2026-04-10T18:35:30.979Z</time></trkpt><trkpt lat="45.712706944121784" lon="9.25272610546524"><ele>264.0</ele><time>2026-04-10T18:35:32.978Z</time></trkpt><trkpt lat="45.712751904444225" lon="9.252651190767775"><ele>264.0</ele><time>2026-04-10T18:35:34.978Z</time></trkpt><trkpt lat="45.712805735293095" lon="9.252595994053678"><ele>264.0</ele><time>2026-04-10T18:35:36.978Z</time></trkpt><trkpt lat="45.712865300207035" lon="9.25254748207619"><ele>264.0</ele><time>2026-04-10T18:35:38.978Z</time></trkpt><trkpt lat="45.71295003084196" lon="9.25250501085339"><ele>264.0</ele><time>2026-04-10T18:35:41.978Z</time></trkpt><trkpt lat="45.71303364936734" lon="9.252487289022728"><ele>264.0</ele><time>2026-04-10T18:35:44.978Z</time></trkpt><trkpt lat="45.71311128644455" lon="9.252511576212605"><ele>264.0</ele><time>2026-04-10T18:35:47.978Z</time></trkpt><trkpt lat="45.71319671559472" lon="9.252547943507231"><ele>264.0</ele><time>2026-04-10T18:35:50.978Z</time></trkpt><trkpt lat="45.71328739582856" lon="9.252582662215616"><ele>264.0</ele><time>2026-04-10T18:35:53.978Z</time></trkpt><trkpt lat="45.71337176015645" lon="9.25263505291416"><ele>264.0</ele><time>2026-04-10T18:35:56.978Z</time></trkpt><trkpt lat="45.713433616732836" lon="9.252666799596682"><ele>264.0</ele><time>2026-04-10T18:35:58.978Z</time></trkpt><trkpt lat="45.71351093322691" lon="9.252715400727165"><ele>264.0</ele><time>2026-04-10T18:36:01.978Z</time></trkpt><trkpt lat="45.71359729820944" lon="9.252743242636015"><ele>264.5</ele><time>2026-04-10T18:36:04.978Z</time></trkpt><trkpt lat="45.71367593432475" lon="9.252799684440074"><ele>265.0</ele><time>2026-04-10T18:36:07.978Z</time></trkpt><trkpt lat="45.7137586761521" lon="9.252849165626191"><ele>265.5</ele><time>2026-04-10T18:36:10.978Z</time></trkpt><trkpt lat="45.71382642432679" lon="9.25290949594129"><ele>266.0</ele><time>2026-04-10T18:36:13.978Z</time></trkpt><trkpt lat="45.71388044763864" lon="9.252979362402542"><ele>266.5</ele><time>2026-04-10T18:36:16.978Z</time></trkpt><trkpt lat="45.71392252869964" lon="9.253064902640011"><ele>267.0</ele><time>2026-04-10T18:36:20.978Z</time></trkpt><trkpt lat="45.71397083733534" lon="9.253141519124148"><ele>267.8571428571429</ele><time>2026-04-10T18:36:24.981Z</time></trkpt><trkpt lat="45.71401655066518" lon="9.253226853485756"><ele>268.7142857142857</ele><time>2026-04-10T18:36:29.981Z</time></trkpt><trkpt lat="45.714062536252854" lon="9.253318098803042"><ele>269.57142857142856</ele><time>2026-04-10T18:36:33.981Z</time></trkpt><trkpt lat="45.71408955722996" lon="9.253407841961643"><ele>270.42857142857144</ele><time>2026-04-10T18:36:37.98Z</time></trkpt><trkpt lat="45.714135882744834" lon="9.25347959200957"><ele>271.2857142857143</ele><time>2026-04-10T18:36:40.98Z</time></trkpt><trkpt lat="45.71417859225314" lon="9.253552921498953"><ele>272.14285714285717</ele><time>2026-04-10T18:36:43.98Z</time></trkpt><trkpt lat="45.71425091215419" lon="9.253587789555256"><ele>273.0</ele><time>2026-04-10T18:36:46.98Z</time></trkpt><trkpt lat="45.71432896503773" lon="9.253601738549794"><ele>273.6666666666667</ele><time>2026-04-10T18:36:50.98Z</time></trkpt><trkpt lat="45.714409415786285" lon="9.253605039351156"><ele>274.3333333333333</ele><time>2026-04-10T18:36:54.98Z</time></trkpt><trkpt lat="45.71447671277861" lon="9.253589155592596"><ele>275.0</ele><time>2026-04-10T18:36:57.98Z</time></trkpt><trkpt lat="45.71454852801674" lon="9.253566433187512"><ele>275.66666666666663</ele><time>2026-04-10T18:37:00.98Z</time></trkpt><trkpt lat="45.71461909408459" lon="9.253513417549973"><ele>276.3333333333333</ele><time>2026-04-10T18:37:03.98Z</time></trkpt><trkpt lat="45.71468154141743" lon="9.253439520477556"><ele>277.0</ele><time>2026-04-10T18:37:06.98Z</time></trkpt><trkpt lat="45.71472420466288" lon="9.253361987046137"><ele>277.0</ele><time>2026-04-10T18:37:08.98Z</time></trkpt><trkpt lat="45.71479952796283" lon="9.253316635727103"><ele>277.0</ele><time>2026-04-10T18:37:11.98Z</time></trkpt><trkpt lat="45.714876411465525" lon="9.253249074584232"><ele>277.0</ele><time>2026-04-10T18:37:14.98Z</time></trkpt><trkpt lat="45.71491054481501" lon="9.25316877503736"><ele>277.0</ele><time>2026-04-10T18:37:16.98Z</time></trkpt><trkpt lat="45.714956289370186" lon="9.253074121433219"><ele>277.0</ele><time>2026-04-10T18:37:19.98Z</time></trkpt><trkpt lat="45.71501084976972" lon="9.252977309925978"><ele>277.0</ele><time>2026-04-10T18:37:22.98Z</time></trkpt><trkpt lat="45.71509433791156" lon="9.25292549014499"><ele>276.8333333333333</ele><time>2026-04-10T18:37:25.979Z</time></trkpt><trkpt lat="45.71515773168632" lon="9.252872268909778"><ele>276.66666666666663</ele><time>2026-04-10T18:37:27.979Z</time></trkpt><trkpt lat="45.71521623845417" lon="9.25281694486173"><ele>276.5</ele><time>2026-04-10T18:37:29.979Z</time></trkpt><trkpt lat="45.71527561383306" lon="9.252777113177128"><ele>276.3333333333333</ele><time>2026-04-10T18:37:31.979Z</time></trkpt><trkpt lat="45.715335292115746" lon="9.252729343796606"><ele>276.1666666666667</ele><time>2026-04-10T18:37:33.979Z</time></trkpt><trkpt lat="45.71541739474996" lon="9.252677789203663"><ele>276.0</ele><time>2026-04-10T18:37:36.979Z</time></trkpt><trkpt lat="45.71549935688679" lon="9.252618651664163"><ele>276.0</ele><time>2026-04-10T18:37:39.979Z</time></trkpt><trkpt lat="45.715554106631" lon="9.252573765735146"><ele>276.0</ele><time>2026-04-10T18:37:41.979Z</time></trkpt><trkpt lat="45.71563154502417" lon="9.252534684536597"><ele>276.0</ele><time>2026-04-10T18:37:44.979Z</time></trkpt><trkpt lat="45.715698969264665" lon="9.252495557603224"><ele>276.0</ele><time>2026-04-10T18:37:47.979Z</time></trkpt><trkpt lat="45.71578579854424" lon="9.252451379475172"><ele>276.0</ele><time>2026-04-10T18:37:50.979Z</time></trkpt><trkpt lat="45.71586590480191" lon="9.25241645482559"><ele>276.0</ele><time>2026-04-10T18:37:53.979Z</time></trkpt><trkpt lat="45.71592571319647" lon="9.252382736898394"><ele>276.0</ele><time>2026-04-10T18:37:55.979Z</time></trkpt><trkpt lat="45.71601056904801" lon="9.252337306750302"><ele>276.0</ele><time>2026-04-10T18:37:58.979Z</time></trkpt><trkpt lat="45.716060646858864" lon="9.252259379796653"><ele>276.0</ele><time>2026-04-10T18:38:01.979Z</time></trkpt><trkpt lat="45.716131182849836" lon="9.252215909156575"><ele>276.0</ele><time>2026-04-10T18:38:05.979Z</time></trkpt><trkpt lat="45.716201213785865" lon="9.252172559521172"><ele>276.0</ele><time>2026-04-10T18:38:08.979Z</time></trkpt><trkpt lat="45.716269295767496" lon="9.252144965747231"><ele>276.0</ele><time>2026-04-10T18:38:11.979Z</time></trkpt><trkpt lat="45.71632625922335" lon="9.252095508439968"><ele>275.57142857142856</ele><time>2026-04-10T18:38:14.979Z</time></trkpt><trkpt lat="45.71639002646922" lon="9.252071405182486"><ele>275.14285714285717</ele><time>2026-04-10T18:38:25.978Z</time></trkpt><trkpt lat="45.71646362389611" lon="9.25203236134485"><ele>274.7142857142857</ele><time>2026-04-10T18:38:31.982Z</time></trkpt><trkpt lat="45.71652430589814" lon="9.251973939418395"><ele>274.2857142857143</ele><time>2026-04-10T18:38:34.981Z</time></trkpt><trkpt lat="45.71657897155051" lon="9.251908758676574"><ele>273.8571428571429</ele><time>2026-04-10T18:38:37.981Z</time></trkpt><trkpt lat="45.716634356687386" lon="9.251832845707582"><ele>273.42857142857144</ele><time>2026-04-10T18:38:40.982Z</time></trkpt><trkpt lat="45.716685519992566" lon="9.251760845056666"><ele>273.0</ele><time>2026-04-10T18:38:43.981Z</time></trkpt><trkpt lat="45.716751858903436" lon="9.251695518291267"><ele>273.0</ele><time>2026-04-10T18:38:46.981Z</time></trkpt><trkpt lat="45.71681768726687" lon="9.251595656743728"><ele>273.0</ele><time>2026-04-10T18:38:49.981Z</time></trkpt><trkpt lat="45.71688058833294" lon="9.251499800997632"><ele>273.0</ele><time>2026-04-10T18:38:52.981Z</time></trkpt><trkpt lat="45.71693498270585" lon="9.25140521230692"><ele>273.0</ele><time>2026-04-10T18:38:55.981Z</time></trkpt><trkpt lat="45.71696924814474" lon="9.251318101213775"><ele>273.0</ele><time>2026-04-10T18:38:58.981Z</time></trkpt><trkpt lat="45.7170163855331" lon="9.251243272422343"><ele>273.0</ele><time>2026-04-10T18:39:02.981Z</time></trkpt><trkpt lat="45.71705732419656" lon="9.251161362676363"><ele>273.8333333333333</ele><time>2026-04-10T18:39:16.981Z</time></trkpt><trkpt lat="45.71712647752309" lon="9.251096802714612"><ele>274.6666666666667</ele><time>2026-04-10T18:39:19.981Z</time></trkpt><trkpt lat="45.7171754807972" lon="9.251033843077497"><ele>275.5</ele><time>2026-04-10T18:39:22.98Z</time></trkpt><trkpt lat="45.71723537898183" lon="9.250961948636185"><ele>276.33333333333337</ele><time>2026-04-10T18:39:25.98Z</time></trkpt><trkpt lat="45.717284660252446" lon="9.250881537122613"><ele>277.1666666666667</ele><time>2026-04-10T18:39:28.98Z</time></trkpt><trkpt lat="45.71733855417365" lon="9.250796753312814"><ele>278.0</ele><time>2026-04-10T18:39:31.98Z</time></trkpt><trkpt lat="45.71739807284759" lon="9.250718274796887"><ele>278.0</ele><time>2026-04-10T18:39:34.98Z</time></trkpt><trkpt lat="45.71746524592534" lon="9.250636861933252"><ele>278.0</ele><time>2026-04-10T18:39:37.98Z</time></trkpt><trkpt lat="45.717536218464986" lon="9.250572307411566"><ele>278.0</ele><time>2026-04-10T18:39:40.98Z</time></trkpt><trkpt lat="45.717609476075395" lon="9.250504835086506"><ele>278.0</ele><time>2026-04-10T18:39:43.98Z</time></trkpt><trkpt lat="45.71768094033022" lon="9.250426412061644"><ele>278.0</ele><time>2026-04-10T18:39:46.98Z</time></trkpt><trkpt lat="45.7177372120961" lon="9.25038567758568"><ele>278.0</ele><time>2026-04-10T18:39:48.98Z</time></trkpt><trkpt lat="45.71780596023478" lon="9.250334051943494"><ele>278.0</ele><time>2026-04-10T18:39:51.98Z</time></trkpt><trkpt lat="45.71786695315371" lon="9.250277989835489"><ele>278.0</ele><time>2026-04-10T18:39:54.98Z</time></trkpt><trkpt lat="45.71793883401954" lon="9.250221636854775"><ele>278.0</ele><time>2026-04-10T18:39:57.98Z</time></trkpt><trkpt lat="45.71801069214565" lon="9.250174427624701"><ele>278.0</ele><time>2026-04-10T18:40:00.98Z</time></trkpt><trkpt lat="45.71808238194513" lon="9.250116066612486"><ele>278.0</ele><time>2026-04-10T18:40:03.98Z</time></trkpt><trkpt lat="45.71815261228633" lon="9.250044976621767"><ele>278.0</ele><time>2026-04-10T18:40:06.98Z</time></trkpt><trkpt lat="45.71821822682645" lon="9.249979793561788"><ele>278.0</ele><time>2026-04-10T18:40:09.98Z</time></trkpt><trkpt lat="45.71827788658739" lon="9.249900665433474"><ele>278.0</ele><time>2026-04-10T18:40:12.979Z</time></trkpt><trkpt lat="45.71834013506878" lon="9.249821919908946"><ele>278.0</ele><time>2026-04-10T18:40:15.979Z</time></trkpt><trkpt lat="45.71840289858738" lon="9.249743908975606"><ele>278.0</ele><time>2026-04-10T18:40:18.979Z</time></trkpt><trkpt lat="45.718459032441146" lon="9.24966444998774"><ele>278.0</ele><time>2026-04-10T18:40:21.979Z</time></trkpt><trkpt lat="45.71851091907363" lon="9.249606223847769"><ele>278.0</ele><time>2026-04-10T18:40:24.979Z</time></trkpt><trkpt lat="45.71857842268951" lon="9.249562501100785"><ele>279.57142857142856</ele><time>2026-04-10T18:40:28.979Z</time></trkpt><trkpt lat="45.718638891734216" lon="9.249524291666974"><ele>281.14285714285717</ele><time>2026-04-10T18:40:31.979Z</time></trkpt><trkpt lat="45.71869184292173" lon="9.249470155570835"><ele>282.7142857142857</ele><time>2026-04-10T18:40:34.979Z</time></trkpt><trkpt lat="45.71874554348685" lon="9.249396642512549"><ele>284.2857142857143</ele><time>2026-04-10T18:40:37.982Z</time></trkpt><trkpt lat="45.71880323979365" lon="9.24933918092451"><ele>285.85714285714283</ele><time>2026-04-10T18:40:40.982Z</time></trkpt><trkpt lat="45.718864945991164" lon="9.249284190158702"><ele>287.42857142857144</ele><time>2026-04-10T18:40:43.982Z</time></trkpt><trkpt lat="45.7189208377393" lon="9.249211785361918"><ele>289.0</ele><time>2026-04-10T18:40:46.982Z</time></trkpt><trkpt lat="45.718979253225335" lon="9.24914951757168"><ele>289.0</ele><time>2026-04-10T18:40:49.982Z</time></trkpt><trkpt lat="45.719038173253395" lon="9.24909829182498"><ele>289.0</ele><time>2026-04-10T18:40:52.982Z</time></trkpt><trkpt lat="45.71910393946505" lon="9.249053002982127"><ele>289.0</ele><time>2026-04-10T18:40:55.982Z</time></trkpt><trkpt lat="45.71916432469311" lon="9.248989763283184"><ele>289.0</ele><time>2026-04-10T18:40:58.982Z</time></trkpt><trkpt lat="45.71921988014501" lon="9.248913989835364"><ele>289.0</ele><time>2026-04-10T18:41:01.982Z</time></trkpt><trkpt lat="45.719272542353366" lon="9.248855153088428"><ele>289.0</ele><time>2026-04-10T18:41:04.982Z</time></trkpt><trkpt lat="45.719331531445704" lon="9.24879805466301"><ele>289.0</ele><time>2026-04-10T18:41:07.982Z</time></trkpt><trkpt lat="45.71937223458314" lon="9.24870776187647"><ele>287.66666666666663</ele><time>2026-04-10T18:41:10.982Z</time></trkpt><trkpt lat="45.719435642302614" lon="9.248649720242982"><ele>286.3333333333333</ele><time>2026-04-10T18:41:13.982Z</time></trkpt><trkpt lat="45.719520304424606" lon="9.248607750309434"><ele>285.0</ele><time>2026-04-10T18:41:17.982Z</time></trkpt><trkpt lat="45.719598053356876" lon="9.248588294056583"><ele>283.6666666666667</ele><time>2026-04-10T18:41:20.981Z</time></trkpt><trkpt lat="45.71966034657345" lon="9.248562214460172"><ele>282.33333333333337</ele><time>2026-04-10T18:41:25.981Z</time></trkpt><trkpt lat="45.71973008479346" lon="9.248584999883844"><ele>281.0</ele><time>2026-04-10T18:41:30.981Z</time></trkpt><trkpt lat="45.71979958011587" lon="9.248589645636452"><ele>281.0</ele><time>2026-04-10T18:41:35.981Z</time></trkpt><trkpt lat="45.71983405663433" lon="9.24849828256785"><ele>281.0</ele><time>2026-04-10T18:41:41.981Z</time></trkpt><trkpt lat="45.719848534873755" lon="9.24839193251745"><ele>281.0</ele><time>2026-04-10T18:41:45.981Z</time></trkpt><trkpt lat="45.71990559463925" lon="9.248305328145861"><ele>281.0</ele><time>2026-04-10T18:41:50.981Z</time></trkpt><trkpt lat="45.71996492213631" lon="9.24821814746554"><ele>281.0</ele><time>2026-04-10T18:41:54.981Z</time></trkpt><trkpt lat="45.719990558065966" lon="9.248127215500688"><ele>281.0</ele><time>2026-04-10T18:41:56.981Z</time></trkpt><trkpt lat="45.72003018778006" lon="9.248040271801484"><ele>280.6666666666667</ele><time>2026-04-10T18:41:58.981Z</time></trkpt><trkpt lat="45.72005906245898" lon="9.247959134162894"><ele>280.33333333333337</ele><time>2026-04-10T18:42:00.981Z</time></trkpt><trkpt lat="45.72011954198729" lon="9.247840749134296"><ele>280.0</ele><time>2026-04-10T18:42:03.981Z</time></trkpt><trkpt lat="45.72012240714539" lon="9.247694068673626"><ele>279.6666666666667</ele><time>2026-04-10T18:42:05.981Z</time></trkpt><trkpt lat="45.72012017788759" lon="9.24755120670771"><ele>279.3333333333333</ele><time>2026-04-10T18:42:07.981Z</time></trkpt><trkpt lat="45.72009726267353" lon="9.247454389287824"><ele>279.0</ele><time>2026-04-10T18:42:09.981Z</time></trkpt><trkpt lat="45.72008682367088" lon="9.247339690409817"><ele>278.57142857142856</ele><time>2026-04-10T18:42:11.98Z</time></trkpt><trkpt lat="45.720076366185864" lon="9.247215112013182"><ele>278.1428571428571</ele><time>2026-04-10T18:42:13.98Z</time></trkpt><trkpt lat="45.72005094269003" lon="9.247117593419336"><ele>277.7142857142857</ele><time>2026-04-10T18:42:15.98Z</time></trkpt><trkpt lat="45.72002980168198" lon="9.24702964420405"><ele>277.2857142857143</ele><time>2026-04-10T18:42:17.98Z</time></trkpt><trkpt lat="45.72002042656575" lon="9.246929927674882"><ele>276.8571428571429</ele><time>2026-04-10T18:42:19.98Z</time></trkpt><trkpt lat="45.720034187468734" lon="9.246832163338006"><ele>276.42857142857144</ele><time>2026-04-10T18:42:21.98Z</time></trkpt><trkpt lat="45.720033723565976" lon="9.246712530732198"><ele>276.0</ele><time>2026-04-10T18:42:24.98Z</time></trkpt><trkpt lat="45.72007403855391" lon="9.246590935538716"><ele>276.0</ele><time>2026-04-10T18:42:27.98Z</time></trkpt><trkpt lat="45.72009475855156" lon="9.246501486750745"><ele>276.0</ele><time>2026-04-10T18:42:31.98Z</time></trkpt><trkpt lat="45.72008914725068" lon="9.246378569436375"><ele>276.0</ele><time>2026-04-10T18:42:35.98Z</time></trkpt><trkpt lat="45.72011765204662" lon="9.246253493030352"><ele>276.0</ele><time>2026-04-10T18:42:38.98Z</time></trkpt><trkpt lat="45.72012830879092" lon="9.24615398085636"><ele>276.0</ele><time>2026-04-10T18:42:40.98Z</time></trkpt><trkpt lat="45.720145562802585" lon="9.246060215799508"><ele>276.0</ele><time>2026-04-10T18:42:42.983Z</time></trkpt><trkpt lat="45.72015996150771" lon="9.245939537998538"><ele>275.6666666666667</ele><time>2026-04-10T18:42:45.983Z</time></trkpt><trkpt lat="45.72017087827487" lon="9.245822578476655"><ele>275.3333333333333</ele><time>2026-04-10T18:42:48.983Z</time></trkpt><trkpt lat="45.720177525126786" lon="9.245729718082146"><ele>275.0</ele><time>2026-04-10T18:42:50.983Z</time></trkpt><trkpt lat="45.720186446223906" lon="9.245634426415798"><ele>274.66666666666663</ele><time>2026-04-10T18:42:52.983Z</time></trkpt><trkpt lat="45.72021386341163" lon="9.245510457776007"><ele>274.3333333333333</ele><time>2026-04-10T18:42:55.983Z</time></trkpt><trkpt lat="45.720214091675075" lon="9.245419939487375"><ele>274.0</ele><time>2026-04-10T18:42:57.983Z</time></trkpt><trkpt lat="45.72024127020686" lon="9.245292762483327"><ele>274.0</ele><time>2026-04-10T18:43:00.983Z</time></trkpt><trkpt lat="45.72028063941149" lon="9.245187668634156"><ele>274.0</ele><time>2026-04-10T18:43:03.983Z</time></trkpt><trkpt lat="45.72032837122811" lon="9.245105400203789"><ele>274.0</ele><time>2026-04-10T18:43:06.983Z</time></trkpt><trkpt lat="45.720377140488196" lon="9.24502202968353"><ele>274.0</ele><time>2026-04-10T18:43:09.983Z</time></trkpt><trkpt lat="45.72043145058638" lon="9.244948086579694"><ele>274.0</ele><time>2026-04-10T18:43:12.982Z</time></trkpt><trkpt lat="45.7204849972117" lon="9.244865790102367"><ele>274.0</ele><time>2026-04-10T18:43:15.982Z</time></trkpt><trkpt lat="45.720535892264614" lon="9.244760157976014"><ele>273.8571428571429</ele><time>2026-04-10T18:43:18.982Z</time></trkpt><trkpt lat="45.720570709224596" lon="9.244647455528424"><ele>273.7142857142857</ele><time>2026-04-10T18:43:21.982Z</time></trkpt><trkpt lat="45.720602622498745" lon="9.244568008790171"><ele>273.57142857142856</ele><time>2026-04-10T18:43:23.982Z</time></trkpt><trkpt lat="45.720620387605805" lon="9.244479151594183"><ele>273.42857142857144</ele><time>2026-04-10T18:43:25.982Z</time></trkpt><trkpt lat="45.720633559822794" lon="9.244389082311027"><ele>273.2857142857143</ele><time>2026-04-10T18:43:27.982Z</time></trkpt><trkpt lat="45.720644524753446" lon="9.24427074883256"><ele>273.14285714285717</ele><time>2026-04-10T18:43:30.982Z</time></trkpt><trkpt lat="45.720648460839335" lon="9.244179428795075"><ele>273.0</ele><time>2026-04-10T18:43:32.982Z</time></trkpt><trkpt lat="45.72062910215691" lon="9.244078548539635"><ele>272.8333333333333</ele><time>2026-04-10T18:43:34.982Z</time></trkpt><trkpt lat="45.720625955565055" lon="9.243943036853969"><ele>272.6666666666667</ele><time>2026-04-10T18:43:37.982Z</time></trkpt><trkpt lat="45.72061209642315" lon="9.243805378614697"><ele>272.5</ele><time>2026-04-10T18:43:40.982Z</time></trkpt><trkpt lat="45.720590709877534" lon="9.243682082105622"><ele>272.33333333333337</ele><time>2026-04-10T18:43:43.982Z</time></trkpt><trkpt lat="45.72057272196746" lon="9.243561698784925"><ele>272.1666666666667</ele><time>2026-04-10T18:43:46.982Z</time></trkpt><trkpt lat="45.720557618200026" lon="9.243473188747881"><ele>272.0</ele><time>2026-04-10T18:43:48.982Z</time></trkpt><trkpt lat="45.720540567605575" lon="9.243353039184871"><ele>271.99999999999994</ele><time>2026-04-10T18:43:51.982Z</time></trkpt><trkpt lat="45.720538311935925" lon="9.243255852182164"><ele>272.0</ele><time>2026-04-10T18:43:54.982Z</time></trkpt><trkpt lat="45.72052006034688" lon="9.243160555438012"><ele>272.0</ele><time>2026-04-10T18:43:57.982Z</time></trkpt><trkpt lat="45.7205102919938" lon="9.243069787655802"><ele>272.0</ele><time>2026-04-10T18:44:00.982Z</time></trkpt><trkpt lat="45.720524370818715" lon="9.242981867411654"><ele>272.0</ele><time>2026-04-10T18:44:04.981Z</time></trkpt><trkpt lat="45.72056972754442" lon="9.242912136120077"><ele>271.99999999999994</ele><time>2026-04-10T18:44:08.981Z</time></trkpt><trkpt lat="45.72062912430473" lon="9.242843069652196"><ele>272.0</ele><time>2026-04-10T18:44:12.981Z</time></trkpt><trkpt lat="45.7206703952599" lon="9.242768958654898"><ele>271.6666666666667</ele><time>2026-04-10T18:44:15.981Z</time></trkpt><trkpt lat="45.720717960567576" lon="9.242679743914579"><ele>271.33333333333337</ele><time>2026-04-10T18:44:18.981Z</time></trkpt><trkpt lat="45.720737787949936" lon="9.242545646667281"><ele>271.0</ele><time>2026-04-10T18:44:21.981Z</time></trkpt><trkpt lat="45.72072372691576" lon="9.242442287222689"><ele>270.6666666666667</ele><time>2026-04-10T18:44:23.981Z</time></trkpt><trkpt lat="45.72070144735855" lon="9.24235706340988"><ele>270.3333333333333</ele><time>2026-04-10T18:44:25.981Z</time></trkpt><trkpt lat="45.7206688103866" lon="9.24223929267651"><ele>270.0</ele><time>2026-04-10T18:44:28.981Z</time></trkpt><trkpt lat="45.720652291784916" lon="9.242149965571475"><ele>269.57142857142856</ele><time>2026-04-10T18:44:30.981Z</time></trkpt><trkpt lat="45.720609036338985" lon="9.242064671271647"><ele>269.1428571428571</ele><time>2026-04-10T18:44:32.981Z</time></trkpt><trkpt lat="45.72057823355221" lon="9.241943339953803"><ele>268.7142857142857</ele><time>2026-04-10T18:44:35.981Z</time></trkpt><trkpt lat="45.72055331269618" lon="9.241848553940448"><ele>268.2857142857143</ele><time>2026-04-10T18:44:37.981Z</time></trkpt><trkpt lat="45.72051892299019" lon="9.241757575418646"><ele>267.8571428571429</ele><time>2026-04-10T18:44:39.981Z</time></trkpt><trkpt lat="45.72047692460932" lon="9.241677102653957"><ele>267.42857142857144</ele><time>2026-04-10T18:44:41.981Z</time></trkpt><trkpt lat="45.720436029526574" lon="9.241601573930087"><ele>267.0</ele><time>2026-04-10T18:44:43.981Z</time></trkpt><trkpt lat="45.72038969802012" lon="9.241526028315715"><ele>265.5</ele><time>2026-04-10T18:44:45.981Z</time></trkpt><trkpt lat="45.72034253258422" lon="9.241412995018335"><ele>264.0</ele><time>2026-04-10T18:44:48.984Z</time></trkpt><trkpt lat="45.72031080972338" lon="9.24131229538706"><ele>262.5</ele><time>2026-04-10T18:44:51.983Z</time></trkpt><trkpt lat="45.72027858023841" lon="9.241220341275191"><ele>261.0</ele><time>2026-04-10T18:44:54.983Z</time></trkpt><trkpt lat="45.7202640445938" lon="9.241099524528865"><ele>259.5</ele><time>2026-04-10T18:44:57.983Z</time></trkpt><trkpt lat="45.72026099565707" lon="9.240972018564271"><ele>258.0</ele><time>2026-04-10T18:45:00.983Z</time></trkpt><trkpt lat="45.72025034870083" lon="9.24085609916472"><ele>257.99999999999994</ele><time>2026-04-10T18:45:03.983Z</time></trkpt><trkpt lat="45.720281161526785" lon="9.240770361004351"><ele>258.0</ele><time>2026-04-10T18:45:08.983Z</time></trkpt><trkpt lat="45.720350153984874" lon="9.24069480702409"><ele>258.0</ele><time>2026-04-10T18:45:12.983Z</time></trkpt><trkpt lat="45.7203620408835" lon="9.240603337374061"><ele>258.0</ele><time>2026-04-10T18:45:14.983Z</time></trkpt><trkpt lat="45.72037852919697" lon="9.240489258887026"><ele>258.0</ele><time>2026-04-10T18:45:17.983Z</time></trkpt><trkpt lat="45.720389419719375" lon="9.240397163782584"><ele>257.99999999999994</ele><time>2026-04-10T18:45:20.983Z</time></trkpt><trkpt lat="45.72041932780791" lon="9.240308971196463"><ele>258.0</ele><time>2026-04-10T18:45:23.983Z</time></trkpt><trkpt lat="45.72044802701869" lon="9.240219192655914"><ele>256.85714285714283</ele><time>2026-04-10T18:45:26.983Z</time></trkpt><trkpt lat="45.72046053975623" lon="9.240114918501979"><ele>255.71428571428572</ele><time>2026-04-10T18:45:29.983Z</time></trkpt><trkpt lat="45.72047185929275" lon="9.240011144742187"><ele>254.57142857142856</ele><time>2026-04-10T18:45:32.983Z</time></trkpt><trkpt lat="45.72048621877059" lon="9.239921215410842"><ele>253.42857142857142</ele><time>2026-04-10T18:45:34.983Z</time></trkpt><trkpt lat="45.720507654977865" lon="9.239803434643273"><ele>252.28571428571428</ele><time>2026-04-10T18:45:37.982Z</time></trkpt><trkpt lat="45.72051932898952" lon="9.239690646886604"><ele>251.14285714285714</ele><time>2026-04-10T18:45:40.982Z</time></trkpt><trkpt lat="45.72051653397268" lon="9.239598309629486"><ele>250.0</ele><time>2026-04-10T18:45:42.982Z</time></trkpt><trkpt lat="45.72048800119288" lon="9.239499633603666"><ele>249.0</ele><time>2026-04-10T18:45:45.982Z</time></trkpt><trkpt lat="45.72041304934749" lon="9.239447835892392"><ele>248.0</ele><time>2026-04-10T18:45:49.982Z</time></trkpt><trkpt lat="45.720349529978385" lon="9.239403608953236"><ele>247.0</ele><time>2026-04-10T18:45:52.982Z</time></trkpt><trkpt lat="45.72029192329094" lon="9.239327431103673"><ele>246.0</ele><time>2026-04-10T18:45:56.982Z</time></trkpt><trkpt lat="45.72028771910345" lon="9.23923101529674"><ele>245.0</ele><time>2026-04-10T18:46:02.982Z</time></trkpt><trkpt lat="45.72027176459693" lon="9.239130333565281"><ele>244.0</ele><time>2026-04-10T18:46:06.982Z</time></trkpt><trkpt lat="45.72025521448786" lon="9.23902837358404"><ele>243.0</ele><time>2026-04-10T18:46:11.982Z</time></trkpt><trkpt lat="45.72023430257801" lon="9.238914806351856"><ele>242.83333333333334</ele><time>2026-04-10T18:46:18.982Z</time></trkpt><trkpt lat="45.720255665562036" lon="9.238803154182623"><ele>242.66666666666669</ele><time>2026-04-10T18:46:22.982Z</time></trkpt><trkpt lat="45.72027098609953" lon="9.238712289195488"><ele>242.5</ele><time>2026-04-10T18:46:25.982Z</time></trkpt><trkpt lat="45.72028162731478" lon="9.238590059557936"><ele>242.33333333333334</ele><time>2026-04-10T18:46:28.981Z</time></trkpt><trkpt lat="45.72029949787861" lon="9.238472059067776"><ele>242.16666666666669</ele><time>2026-04-10T18:46:31.981Z</time></trkpt><trkpt lat="45.720306645255086" lon="9.238372119270805"><ele>242.0</ele><time>2026-04-10T18:46:33.981Z</time></trkpt><trkpt lat="45.72030528555458" lon="9.238277877485183"><ele>242.00000000000003</ele><time>2026-04-10T18:46:35.981Z</time></trkpt><trkpt lat="45.72031261528218" lon="9.23818744125961"><ele>242.0</ele><time>2026-04-10T18:46:37.981Z</time></trkpt><trkpt lat="45.720311410167156" lon="9.23805603970053"><ele>242.0</ele><time>2026-04-10T18:46:40.981Z</time></trkpt><trkpt lat="45.72031437699267" lon="9.237943080314356"><ele>242.0</ele><time>2026-04-10T18:46:43.981Z</time></trkpt><trkpt lat="45.72031317004948" lon="9.237826100630896"><ele>242.00000000000003</ele><time>2026-04-10T18:46:46.981Z</time></trkpt><trkpt lat="45.72029239649903" lon="9.237713219403512"><ele>242.0</ele><time>2026-04-10T18:46:49.981Z</time></trkpt><trkpt lat="45.72027027263172" lon="9.237597106210387"><ele>243.16666666666669</ele><time>2026-04-10T18:46:52.981Z</time></trkpt><trkpt lat="45.720264129316384" lon="9.237480433126828"><ele>244.33333333333334</ele><time>2026-04-10T18:46:55.984Z</time></trkpt><trkpt lat="45.72025289595703" lon="9.237366116208593"><ele>245.5</ele><time>2026-04-10T18:46:58.984Z</time></trkpt><trkpt lat="45.7202406228806" lon="9.237272873237021"><ele>246.66666666666669</ele><time>2026-04-10T18:47:00.984Z</time></trkpt><trkpt lat="45.72021337367619" lon="9.237185521873675"><ele>247.83333333333334</ele><time>2026-04-10T18:47:03.984Z</time></trkpt><trkpt lat="45.720171170929184" lon="9.23708318188843"><ele>249.0</ele><time>2026-04-10T18:47:06.984Z</time></trkpt><trkpt lat="45.72009929513954" lon="9.237013019358569"><ele>250.16666666666666</ele><time>2026-04-10T18:47:09.984Z</time></trkpt><trkpt lat="45.72001094442809" lon="9.236975945652286"><ele>251.33333333333331</ele><time>2026-04-10T18:47:12.984Z</time></trkpt><trkpt lat="45.719925023417005" lon="9.236960937424225"><ele>252.5</ele><time>2026-04-10T18:47:15.984Z</time></trkpt><trkpt lat="45.719853308477845" lon="9.236944901347142"><ele>253.66666666666666</ele><time>2026-04-10T18:47:18.984Z</time></trkpt><trkpt lat="45.719775310604135" lon="9.236932909879116"><ele>254.83333333333331</ele><time>2026-04-10T18:47:21.984Z</time></trkpt><trkpt lat="45.71971199030672" lon="9.236905293471075"><ele>256.0</ele><time>2026-04-10T18:47:24.984Z</time></trkpt><trkpt lat="45.7196492500151" lon="9.236893339062686"><ele>255.99999999999997</ele><time>2026-04-10T18:47:27.984Z</time></trkpt><trkpt lat="45.7195671665676" lon="9.236892104865673"><ele>256.0</ele><time>2026-04-10T18:47:31.984Z</time></trkpt><trkpt lat="45.71948525718148" lon="9.236887826664608"><ele>256.0</ele><time>2026-04-10T18:47:35.984Z</time></trkpt><trkpt lat="45.71941254853037" lon="9.23686229466779"><ele>256.0</ele><time>2026-04-10T18:47:39.984Z</time></trkpt><trkpt lat="45.71934366733288" lon="9.236883956439245"><ele>255.99999999999997</ele><time>2026-04-10T18:47:42.984Z</time></trkpt><trkpt lat="45.71926968468657" lon="9.236939720901697"><ele>256.0</ele><time>2026-04-10T18:47:45.984Z</time></trkpt><trkpt lat="45.71922584593372" lon="9.237025942255512"><ele>257.0</ele><time>2026-04-10T18:47:49.984Z</time></trkpt><trkpt lat="45.719208806985954" lon="9.237134880476377"><ele>258.0</ele><time>2026-04-10T18:47:53.983Z</time></trkpt><trkpt lat="45.71919905974766" lon="9.23724152341523"><ele>259.0</ele><time>2026-04-10T18:47:57.983Z</time></trkpt><trkpt lat="45.71918215519502" lon="9.237352443604417"><ele>260.0</ele><time>2026-04-10T18:48:01.983Z</time></trkpt><trkpt lat="45.71916888506272" lon="9.237458515157774"><ele>261.0</ele><time>2026-04-10T18:48:05.983Z</time></trkpt><trkpt lat="45.71914881668865" lon="9.23754800849574"><ele>262.0</ele><time>2026-04-10T18:48:08.983Z</time></trkpt><trkpt lat="45.71910932751827" lon="9.23762778142435"><ele>263.0</ele><time>2026-04-10T18:48:11.983Z</time></trkpt><trkpt lat="45.71906341290756" lon="9.237690364257915"><ele>263.57142857142856</ele><time>2026-04-10T18:48:14.983Z</time></trkpt><trkpt lat="45.71901693792489" lon="9.237766520019502"><ele>264.1428571428571</ele><time>2026-04-10T18:48:17.983Z</time></trkpt><trkpt lat="45.71897496654836" lon="9.23785815655342"><ele>264.7142857142857</ele><time>2026-04-10T18:48:20.983Z</time></trkpt><trkpt lat="45.718927435251025" lon="9.237934162984983"><ele>265.2857142857143</ele><time>2026-04-10T18:48:23.983Z</time></trkpt><trkpt lat="45.718883411459935" lon="9.238008930311713"><ele>265.8571428571429</ele><time>2026-04-10T18:48:26.983Z</time></trkpt><trkpt lat="45.718860314712174" lon="9.238111514294658"><ele>266.42857142857144</ele><time>2026-04-10T18:48:29.983Z</time></trkpt><trkpt lat="45.71883379755027" lon="9.238205068240484"><ele>267.0</ele><time>2026-04-10T18:48:32.983Z</time></trkpt><trkpt lat="45.71879776844691" lon="9.238295622961259"><ele>267.28571428571433</ele><time>2026-04-10T18:48:35.983Z</time></trkpt><trkpt lat="45.71875257382523" lon="9.238378937779684"><ele>267.57142857142856</ele><time>2026-04-10T18:48:38.983Z</time></trkpt><trkpt lat="45.718713491749455" lon="9.238457099108853"><ele>267.8571428571429</ele><time>2026-04-10T18:48:41.983Z</time></trkpt><trkpt lat="45.718644655252035" lon="9.238502956324755"><ele>268.14285714285717</ele><time>2026-04-10T18:48:46.982Z</time></trkpt><trkpt lat="45.71857619135199" lon="9.238518631364334"><ele>268.42857142857144</ele><time>2026-04-10T18:48:50.982Z</time></trkpt><trkpt lat="45.71850793937734" lon="9.238519143725034"><ele>268.7142857142857</ele><time>2026-04-10T18:48:54.98Z</time></trkpt><trkpt lat="45.71843509328211" lon="9.238531475804116"><ele>269.0</ele><time>2026-04-10T18:48:58.979Z</time></trkpt><trkpt lat="45.718366246728344" lon="9.23851545380848"><ele>269.1666666666667</ele><time>2026-04-10T18:49:01.981Z</time></trkpt><trkpt lat="45.71829138722162" lon="9.238521132187802"><ele>269.33333333333337</ele><time>2026-04-10T18:49:04.979Z</time></trkpt><trkpt lat="45.71821205232457" lon="9.238563740890081"><ele>269.5</ele><time>2026-04-10T18:49:07.978Z</time></trkpt><trkpt lat="45.7181464869347" lon="9.238632463895938"><ele>269.6666666666667</ele><time>2026-04-10T18:49:10.979Z</time></trkpt><trkpt lat="45.7181043681263" lon="9.23870218153231"><ele>269.8333333333333</ele><time>2026-04-10T18:49:12.978Z</time></trkpt><trkpt lat="45.718065862406306" lon="9.238773681055442"><ele>270.0</ele><time>2026-04-10T18:49:14.977Z</time></trkpt><trkpt lat="45.718025550854954" lon="9.238878057438754"><ele>269.85714285714283</ele><time>2026-04-10T18:49:17.977Z</time></trkpt><trkpt lat="45.71798586384582" lon="9.238983178868313"><ele>269.71428571428567</ele><time>2026-04-10T18:49:20.977Z</time></trkpt><trkpt lat="45.71794700446133" lon="9.239083339834153"><ele>269.57142857142856</ele><time>2026-04-10T18:49:23.976Z</time></trkpt><trkpt lat="45.71790670400361" lon="9.239180097977144"><ele>269.42857142857144</ele><time>2026-04-10T18:49:26.976Z</time></trkpt><trkpt lat="45.71786126161751" lon="9.239264960120375"><ele>269.28571428571433</ele><time>2026-04-10T18:49:29.976Z</time></trkpt><trkpt lat="45.717816937082986" lon="9.239331802575881"><ele>269.14285714285717</ele><time>2026-04-10T18:49:32.976Z</time></trkpt><trkpt lat="45.71776280498774" lon="9.239384623091428"><ele>269.0</ele><time>2026-04-10T18:49:35.976Z</time></trkpt><trkpt lat="45.717712281894975" lon="9.239446417795808"><ele>269.0</ele><time>2026-04-10T18:49:38.976Z</time></trkpt><trkpt lat="45.71765796437894" lon="9.239499510712326"><ele>269.0</ele><time>2026-04-10T18:49:41.975Z</time></trkpt><trkpt lat="45.717594355464826" lon="9.239590860104586"><ele>269.0</ele><time>2026-04-10T18:49:44.975Z</time></trkpt><trkpt lat="45.71758414794533" lon="9.23968407793349"><ele>269.0</ele><time>2026-04-10T18:49:47.975Z</time></trkpt><trkpt lat="45.717562155478795" lon="9.239769123561793"><ele>269.0</ele><time>2026-04-10T18:49:50.975Z</time></trkpt><trkpt lat="45.717530693781164" lon="9.239870676299176"><ele>269.0</ele><time>2026-04-10T18:49:53.975Z</time></trkpt><trkpt lat="45.71751003937328" lon="9.23998873837542"><ele>269.0</ele><time>2026-04-10T18:49:56.975Z</time></trkpt><trkpt lat="45.71747999909094" lon="9.240087095302002"><ele>269.0</ele><time>2026-04-10T18:49:59.975Z</time></trkpt><trkpt lat="45.71744577574475" lon="9.24019007632733"><ele>269.0</ele><time>2026-04-10T18:50:02.975Z</time></trkpt><trkpt lat="45.71741930057166" lon="9.24028716555723"><ele>269.0</ele><time>2026-04-10T18:50:05.975Z</time></trkpt><trkpt lat="45.71738862261369" lon="9.240385725436221"><ele>269.0</ele><time>2026-04-10T18:50:09.975Z</time></trkpt><trkpt lat="45.71734667040444" lon="9.24045316567279"><ele>269.0</ele><time>2026-04-10T18:50:13.974Z</time></trkpt><trkpt lat="45.71728249219467" lon="9.240510554381327"><ele>269.0</ele><time>2026-04-10T18:50:17.974Z</time></trkpt><trkpt lat="45.71720919814496" lon="9.240554671866462"><ele>269.0</ele><time>2026-04-10T18:50:21.974Z</time></trkpt><trkpt lat="45.717140753659514" lon="9.240575043279453"><ele>269.0</ele><time>2026-04-10T18:50:24.974Z</time></trkpt><trkpt lat="45.71706715328276" lon="9.240589816256044"><ele>269.0</ele><time>2026-04-10T18:50:27.974Z</time></trkpt><trkpt lat="45.71699851571723" lon="9.24059752501786"><ele>269.0</ele><time>2026-04-10T18:50:30.974Z</time></trkpt><trkpt lat="45.71693248298551" lon="9.240628466769701"><ele>269.0</ele><time>2026-04-10T18:50:33.974Z</time></trkpt><trkpt lat="45.7168572291523" lon="9.240658082265037"><ele>269.0</ele><time>2026-04-10T18:50:36.974Z</time></trkpt><trkpt lat="45.71677528560751" lon="9.24069543603609"><ele>269.0</ele><time>2026-04-10T18:50:39.974Z</time></trkpt><trkpt lat="45.71669959913961" lon="9.240757026088655"><ele>269.83333333333337</ele><time>2026-04-10T18:50:42.974Z</time></trkpt><trkpt lat="45.716627087017265" lon="9.240810092388752"><ele>270.6666666666667</ele><time>2026-04-10T18:50:45.974Z</time></trkpt><trkpt lat="45.7165464294084" lon="9.240855062019573"><ele>271.5</ele><time>2026-04-10T18:50:48.974Z</time></trkpt><trkpt lat="45.71646547943398" lon="9.240888177103912"><ele>272.3333333333333</ele><time>2026-04-10T18:50:51.974Z</time></trkpt><trkpt lat="45.71639065748019" lon="9.240925157691304"><ele>273.16666666666663</ele><time>2026-04-10T18:50:54.974Z</time></trkpt><trkpt lat="45.71633855531981" lon="9.240993589617258"><ele>274.0</ele><time>2026-04-10T18:50:57.973Z</time></trkpt><trkpt lat="45.71627718017531" lon="9.241053238610272"><ele>274.00000000000006</ele><time>2026-04-10T18:51:00.973Z</time></trkpt><trkpt lat="45.71620616710836" lon="9.24111246004055"><ele>274.0</ele><time>2026-04-10T18:51:03.973Z</time></trkpt><trkpt lat="45.716152603980554" lon="9.24117491754212"><ele>274.0</ele><time>2026-04-10T18:51:06.976Z</time></trkpt><trkpt lat="45.71607747298358" lon="9.241173047112701"><ele>274.0</ele><time>2026-04-10T18:51:20.976Z</time></trkpt><trkpt lat="45.716014658914894" lon="9.241135497172525"><ele>274.0</ele><time>2026-04-10T18:51:25.976Z</time></trkpt><trkpt lat="45.71598472448897" lon="9.24103658231869"><ele>274.00000000000006</ele><time>2026-04-10T18:51:30.976Z</time></trkpt><trkpt lat="45.71597806585058" lon="9.240927430239989"><ele>274.0</ele><time>2026-04-10T18:51:35.976Z</time></trkpt><trkpt lat="45.71595924243484" lon="9.24080981670106"><ele>274.0</ele><time>2026-04-10T18:51:39.976Z</time></trkpt><trkpt lat="45.715933337058495" lon="9.240697127824193"><ele>274.0</ele><time>2026-04-10T18:51:42.976Z</time></trkpt><trkpt lat="45.71593379016398" lon="9.240580801665141"><ele>274.0</ele><time>2026-04-10T18:51:45.975Z</time></trkpt><trkpt lat="45.71594341084719" lon="9.240451647519164"><ele>274.0</ele><time>2026-04-10T18:51:48.975Z</time></trkpt><trkpt lat="45.715916722066716" lon="9.240349890787293"><ele>274.0</ele><time>2026-04-10T18:51:51.975Z</time></trkpt><trkpt lat="45.71590443181714" lon="9.240242298711037"><ele>274.0</ele><time>2026-04-10T18:51:54.975Z</time></trkpt><trkpt lat="45.71588784522366" lon="9.240137097210956"><ele>274.0</ele><time>2026-04-10T18:51:57.975Z</time></trkpt><trkpt lat="45.715840795128024" lon="9.240068229997318"><ele>274.0</ele><time>2026-04-10T18:52:00.975Z</time></trkpt><trkpt lat="45.71578166539858" lon="9.240034924627306"><ele>274.0</ele><time>2026-04-10T18:52:02.975Z</time></trkpt><trkpt lat="45.71570561235723" lon="9.240017472057865"><ele>274.0</ele><time>2026-04-10T18:52:04.975Z</time></trkpt><trkpt lat="45.71560966926136" lon="9.240005101660518"><ele>274.0</ele><time>2026-04-10T18:52:06.975Z</time></trkpt><trkpt lat="45.71554698644543" lon="9.240018945766437"><ele>274.0</ele><time>2026-04-10T18:52:08.975Z</time></trkpt><trkpt lat="45.715458111595346" lon="9.240037228043395"><ele>274.00000000000006</ele><time>2026-04-10T18:52:11.975Z</time></trkpt><trkpt lat="45.71539360776613" lon="9.240019664948191"><ele>274.0</ele><time>2026-04-10T18:52:13.975Z</time></trkpt><trkpt lat="45.715319696052546" lon="9.240001447146472"><ele>274.0</ele><time>2026-04-10T18:52:16.975Z</time></trkpt><trkpt lat="45.715245920788796" lon="9.239992012337698"><ele>274.0</ele><time>2026-04-10T18:52:19.975Z</time></trkpt><trkpt lat="45.71517045730669" lon="9.240002361629733"><ele>274.0</ele><time>2026-04-10T18:52:22.975Z</time></trkpt><trkpt lat="45.715090274277756" lon="9.240020546701896"><ele>274.00000000000006</ele><time>2026-04-10T18:52:25.975Z</time></trkpt><trkpt lat="45.71501399306878" lon="9.240031736588532"><ele>274.0</ele><time>2026-04-10T18:52:28.975Z</time></trkpt><trkpt lat="45.71494110540885" lon="9.240030639933167"><ele>275.16666666666663</ele><time>2026-04-10T18:52:31.975Z</time></trkpt><trkpt lat="45.71485961584549" lon="9.24006865591953"><ele>276.3333333333333</ele><time>2026-04-10T18:52:34.974Z</time></trkpt><trkpt lat="45.71478344442252" lon="9.240092359362029"><ele>277.5</ele><time>2026-04-10T18:52:37.974Z</time></trkpt><trkpt lat="45.71471623882897" lon="9.240154421099396"><ele>278.6666666666667</ele><time>2026-04-10T18:52:40.974Z</time></trkpt><trkpt lat="45.714665366880006" lon="9.240227423194764"><ele>279.83333333333337</ele><time>2026-04-10T18:52:43.974Z</time></trkpt><trkpt lat="45.71464353838757" lon="9.240315294806274"><ele>281.0</ele><time>2026-04-10T18:52:46.974Z</time></trkpt><trkpt lat="45.71464456150023" lon="9.24042357991759"><ele>281.00000000000006</ele><time>2026-04-10T18:52:49.974Z</time></trkpt><trkpt lat="45.714615421692756" lon="9.240525724207323"><ele>281.0</ele><time>2026-04-10T18:52:52.974Z</time></trkpt><trkpt lat="45.71460950992322" lon="9.240637374826163"><ele>281.0</ele><time>2026-04-10T18:52:55.974Z</time></trkpt><trkpt lat="45.71461876089598" lon="9.240736248568487"><ele>281.0</ele><time>2026-04-10T18:52:58.974Z</time></trkpt><trkpt lat="45.71462951195617" lon="9.24082556701636"><ele>281.0</ele><time>2026-04-10T18:53:00.974Z</time></trkpt><trkpt lat="45.71465048533017" lon="9.2409151398456"><ele>281.00000000000006</ele><time>2026-04-10T18:53:02.974Z</time></trkpt><trkpt lat="45.71467478965258" lon="9.24099978517246"><ele>281.0</ele><time>2026-04-10T18:53:04.974Z</time></trkpt><trkpt lat="45.714711518376696" lon="9.241119840915697"><ele>281.5</ele><time>2026-04-10T18:53:07.974Z</time></trkpt><trkpt lat="45.714776462581256" lon="9.241218334615432"><ele>282.0</ele><time>2026-04-10T18:53:10.974Z</time></trkpt><trkpt lat="45.714818682161194" lon="9.241325562615843"><ele>282.5</ele><time>2026-04-10T18:53:13.977Z</time></trkpt><trkpt lat="45.71483914980451" lon="9.241412714604726"><ele>283.0</ele><time>2026-04-10T18:53:15.977Z</time></trkpt><trkpt lat="45.714862234494845" lon="9.241528754611425"><ele>283.5</ele><time>2026-04-10T18:53:18.977Z</time></trkpt><trkpt lat="45.71490573693784" lon="9.24159818637348"><ele>284.0</ele><time>2026-04-10T18:53:21.976Z</time></trkpt><trkpt lat="45.71495692037649" lon="9.241682107317068"><ele>283.5</ele><time>2026-04-10T18:53:25.977Z</time></trkpt><trkpt lat="45.715017756195664" lon="9.241748289707264"><ele>283.0</ele><time>2026-04-10T18:53:29.977Z</time></trkpt><trkpt lat="45.71523004533873" lon="9.241767579527112"><ele>282.5</ele><time>2026-04-10T18:53:38.977Z</time></trkpt><trkpt lat="45.71538385252566" lon="9.24177413269903"><ele>282.0</ele><time>2026-04-10T18:53:43.977Z</time></trkpt><trkpt lat="45.715621324915695" lon="9.241770876365946"><ele>282.0</ele><time>2026-04-10T18:53:50.976Z</time></trkpt><trkpt lat="45.71570682105896" lon="9.241806706817703"><ele>282.0</ele><time>2026-04-10T18:53:53.976Z</time></trkpt><trkpt lat="45.7157589397293" lon="9.241865881098608"><ele>282.0</ele><time>2026-04-10T18:53:55.976Z</time></trkpt><trkpt lat="45.715818364140546" lon="9.241913260178928"><ele>282.0</ele><time>2026-04-10T18:53:57.976Z</time></trkpt><trkpt lat="45.71588198033717" lon="9.241997109995422"><ele>282.0</ele><time>2026-04-10T18:54:00.976Z</time></trkpt><trkpt lat="45.71594524088007" lon="9.242077526700488"><ele>282.0</ele><time>2026-04-10T18:54:03.976Z</time></trkpt><trkpt lat="45.71601128014363" lon="9.242143024314377"><ele>282.0</ele><time>2026-04-10T18:54:06.976Z</time></trkpt><trkpt lat="45.71606265570518" lon="9.242203940437271"><ele>282.0</ele><time>2026-04-10T18:54:10.976Z</time></trkpt><trkpt lat="45.71613933771307" lon="9.24227956906664"><ele>282.0</ele><time>2026-04-10T18:54:14.976Z</time></trkpt><trkpt lat="45.716218491753246" lon="9.242323952180152"><ele>282.0</ele><time>2026-04-10T18:54:17.976Z</time></trkpt><trkpt lat="45.716280937911876" lon="9.242355967425684"><ele>282.0</ele><time>2026-04-10T18:54:19.976Z</time></trkpt><trkpt lat="45.716362733920505" lon="9.242409275188042"><ele>282.0</ele><time>2026-04-10T18:54:22.976Z</time></trkpt><trkpt lat="45.71644544841705" lon="9.242454980304062"><ele>281.42857142857144</ele><time>2026-04-10T18:54:25.976Z</time></trkpt><trkpt lat="45.71650581979435" lon="9.242488644658206"><ele>280.85714285714283</ele><time>2026-04-10T18:54:27.976Z</time></trkpt><trkpt lat="45.71655727371478" lon="9.242540980928219"><ele>280.2857142857143</ele><time>2026-04-10T18:54:29.976Z</time></trkpt><trkpt lat="45.716642403148505" lon="9.242613557581777"><ele>279.7142857142857</ele><time>2026-04-10T18:54:32.976Z</time></trkpt><trkpt lat="45.71669246016797" lon="9.24267096199085"><ele>279.14285714285717</ele><time>2026-04-10T18:54:34.975Z</time></trkpt><trkpt lat="45.716773330320805" lon="9.242729563623975"><ele>278.57142857142856</ele><time>2026-04-10T18:54:37.975Z</time></trkpt><trkpt lat="45.716830550425705" lon="9.242779121980709"><ele>278.0</ele><time>2026-04-10T18:54:39.975Z</time></trkpt><trkpt lat="45.716901540379446" lon="9.242850137221055"><ele>276.5</ele><time>2026-04-10T18:54:42.975Z</time></trkpt><trkpt lat="45.716945310541405" lon="9.24291737041318"><ele>275.0</ele><time>2026-04-10T18:54:44.975Z</time></trkpt><trkpt lat="45.717004763808454" lon="9.243008120252593"><ele>273.5</ele><time>2026-04-10T18:54:47.975Z</time></trkpt><trkpt lat="45.71706949708702" lon="9.243086240626944"><ele>272.0</ele><time>2026-04-10T18:54:50.975Z</time></trkpt><trkpt lat="45.71712348616419" lon="9.24316132066609"><ele>270.5</ele><time>2026-04-10T18:54:53.975Z</time></trkpt><trkpt lat="45.717179338391155" lon="9.243240606317062"><ele>269.0</ele><time>2026-04-10T18:54:56.975Z</time></trkpt><trkpt lat="45.717234712588706" lon="9.24333173406985"><ele>269.0</ele><time>2026-04-10T18:54:59.975Z</time></trkpt><trkpt lat="45.717295368125825" lon="9.24340928963507"><ele>269.0</ele><time>2026-04-10T18:55:02.975Z</time></trkpt><trkpt lat="45.71734752793552" lon="9.243479280813842"><ele>269.0</ele><time>2026-04-10T18:55:05.975Z</time></trkpt><trkpt lat="45.71740264817509" lon="9.24355547305266"><ele>269.0</ele><time>2026-04-10T18:55:08.975Z</time></trkpt><trkpt lat="45.717449069328275" lon="9.243652604339701"><ele>269.0</ele><time>2026-04-10T18:55:11.975Z</time></trkpt><trkpt lat="45.717500783991134" lon="9.243746593953203"><ele>269.0</ele><time>2026-04-10T18:55:14.975Z</time></trkpt><trkpt lat="45.7175652762365" lon="9.243838917529585"><ele>269.0</ele><time>2026-04-10T18:55:17.977Z</time></trkpt><trkpt lat="45.71763521624567" lon="9.243925956571074"><ele>269.0</ele><time>2026-04-10T18:55:20.977Z</time></trkpt><trkpt lat="45.7176951236557" lon="9.244015766552605"><ele>269.0</ele><time>2026-04-10T18:55:23.978Z</time></trkpt><trkpt lat="45.71775702987194" lon="9.244108430014702"><ele>269.0</ele><time>2026-04-10T18:55:26.978Z</time></trkpt><trkpt lat="45.717776520198576" lon="9.244223327850893"><ele>269.0</ele><time>2026-04-10T18:55:29.978Z</time></trkpt><trkpt lat="45.7177686393076" lon="9.244313710948912"><ele>269.0</ele><time>2026-04-10T18:55:32.977Z</time></trkpt><trkpt lat="45.71774753473279" lon="9.244419750623297"><ele>269.0</ele><time>2026-04-10T18:55:36.977Z</time></trkpt><trkpt lat="45.71772611001664" lon="9.244515377483404"><ele>269.0</ele><time>2026-04-10T18:55:39.977Z</time></trkpt><trkpt lat="45.71768449554924" lon="9.244617085411825"><ele>269.0</ele><time>2026-04-10T18:55:43.977Z</time></trkpt><trkpt lat="45.71765957940129" lon="9.244724054399892"><ele>269.0</ele><time>2026-04-10T18:55:46.977Z</time></trkpt><trkpt lat="45.717640718726685" lon="9.244836647645092"><ele>269.0</ele><time>2026-04-10T18:55:49.976Z</time></trkpt><trkpt lat="45.71761242296629" lon="9.244962364170215"><ele>269.0</ele><time>2026-04-10T18:55:52.976Z</time></trkpt><trkpt lat="45.7175779694246" lon="9.245084743570475"><ele>268.5</ele><time>2026-04-10T18:55:55.976Z</time></trkpt><trkpt lat="45.7175482406649" lon="9.245202070956783"><ele>268.0</ele><time>2026-04-10T18:55:58.976Z</time></trkpt><trkpt lat="45.71752762042257" lon="9.245316331551825"><ele>267.5</ele><time>2026-04-10T18:56:01.976Z</time></trkpt><trkpt lat="45.71752777961757" lon="9.245432810036695"><ele>267.0</ele><time>2026-04-10T18:56:04.976Z</time></trkpt><trkpt lat="45.717532005192474" lon="9.245525016295218"><ele>266.5</ele><time>2026-04-10T18:56:06.976Z</time></trkpt><trkpt lat="45.717551421345405" lon="9.245655373196682"><ele>266.0</ele><time>2026-04-10T18:56:09.976Z</time></trkpt><trkpt lat="45.717561506344225" lon="9.245763846584167"><ele>265.83333333333337</ele><time>2026-04-10T18:56:12.976Z</time></trkpt><trkpt lat="45.71756517446431" lon="9.245882822141958"><ele>265.6666666666667</ele><time>2026-04-10T18:56:15.976Z</time></trkpt><trkpt lat="45.717554984009375" lon="9.245992494824486"><ele>265.5</ele><time>2026-04-10T18:56:18.976Z</time></trkpt><trkpt lat="45.71755126681994" lon="9.246104793494636"><ele>265.3333333333333</ele><time>2026-04-10T18:56:21.976Z</time></trkpt><trkpt lat="45.71756304601463" lon="9.246221947790643"><ele>265.16666666666663</ele><time>2026-04-10T18:56:24.976Z</time></trkpt><trkpt lat="45.717552536978026" lon="9.246337911284657"><ele>265.0</ele><time>2026-04-10T18:56:27.976Z</time></trkpt><trkpt lat="45.7175386702512" lon="9.24644455191876"><ele>264.99999999999994</ele><time>2026-04-10T18:56:30.976Z</time></trkpt><trkpt lat="45.71752073866409" lon="9.246545264766944"><ele>265.0</ele><time>2026-04-10T18:56:33.976Z</time></trkpt><trkpt lat="45.7174911607856" lon="9.246631030697102"><ele>265.0</ele><time>2026-04-10T18:56:36.975Z</time></trkpt><trkpt lat="45.717455958141215" lon="9.246715467697056"><ele>265.0</ele><time>2026-04-10T18:56:39.975Z</time></trkpt><trkpt lat="45.71742094156304" lon="9.24681014877257"><ele>265.0</ele><time>2026-04-10T18:56:42.975Z</time></trkpt><trkpt lat="45.71738048545269" lon="9.246900363490779"><ele>264.99999999999994</ele><time>2026-04-10T18:56:45.975Z</time></trkpt><trkpt lat="45.7173138609439" lon="9.24693033531065"><ele>265.0</ele><time>2026-04-10T18:56:49.975Z</time></trkpt><trkpt lat="45.71724010651187" lon="9.24695225663172"><ele>264.99999999999994</ele><time>2026-04-10T18:56:53.975Z</time></trkpt><trkpt lat="45.71716932670397" lon="9.24696352392624"><ele>265.0</ele><time>2026-04-10T18:56:57.975Z</time></trkpt><trkpt lat="45.71708772697303" lon="9.246973894089022"><ele>265.0</ele><time>2026-04-10T18:57:01.975Z</time></trkpt><trkpt lat="45.71701247561341" lon="9.246940702960964"><ele>265.0</ele><time>2026-04-10T18:57:05.975Z</time></trkpt><trkpt lat="45.7169540149438" lon="9.246899906844966"><ele>265.0</ele><time>2026-04-10T18:57:08.975Z</time></trkpt><trkpt lat="45.716874631942495" lon="9.246864189999163"><ele>264.99999999999994</ele><time>2026-04-10T18:57:12.975Z</time></trkpt><trkpt lat="45.71681098330702" lon="9.246841595434306"><ele>265.0</ele><time>2026-04-10T18:57:15.975Z</time></trkpt><trkpt lat="45.71674491130185" lon="9.246814157627801"><ele>265.85714285714283</ele><time>2026-04-10T18:57:18.975Z</time></trkpt><trkpt lat="45.71668064287625" lon="9.246793177692647"><ele>266.7142857142857</ele><time>2026-04-10T18:57:21.975Z</time></trkpt><trkpt lat="45.71661747769048" lon="9.246741082662334"><ele>267.57142857142856</ele><time>2026-04-10T18:57:24.978Z</time></trkpt><trkpt lat="45.716550662902435" lon="9.246725844263969"><ele>268.42857142857144</ele><time>2026-04-10T18:57:27.978Z</time></trkpt><trkpt lat="45.716474524564205" lon="9.246678691499776"><ele>269.2857142857143</ele><time>2026-04-10T18:57:31.977Z</time></trkpt><trkpt lat="45.71639534798975" lon="9.246675328685681"><ele>270.1428571428571</ele><time>2026-04-10T18:57:34.978Z</time></trkpt><trkpt lat="45.716321482923334" lon="9.246633778060891"><ele>271.0</ele><time>2026-04-10T18:57:37.977Z</time></trkpt><trkpt lat="45.71623799889253" lon="9.246593667896253"><ele>271.0</ele><time>2026-04-10T18:57:40.977Z</time></trkpt><trkpt lat="45.7161600983449" lon="9.24654730883972"><ele>271.0</ele><time>2026-04-10T18:57:43.977Z</time></trkpt><trkpt lat="45.71606966758141" lon="9.246514703432105"><ele>271.0</ele><time>2026-04-10T18:57:46.977Z</time></trkpt><trkpt lat="45.71598325821125" lon="9.246482245971523"><ele>271.0</ele><time>2026-04-10T18:57:49.977Z</time></trkpt><trkpt lat="45.71591922774032" lon="9.246484622356734"><ele>271.0</ele><time>2026-04-10T18:57:51.977Z</time></trkpt><trkpt lat="45.71583902382762" lon="9.246445075887284"><ele>271.0</ele><time>2026-04-10T18:57:54.977Z</time></trkpt><trkpt lat="45.71575080693078" lon="9.246389677448196"><ele>271.42857142857144</ele><time>2026-04-10T18:57:57.977Z</time></trkpt><trkpt lat="45.71567213545749" lon="9.246378693388412"><ele>271.8571428571429</ele><time>2026-04-10T18:57:59.977Z</time></trkpt><trkpt lat="45.71561118786821" lon="9.246335601170866"><ele>272.28571428571433</ele><time>2026-04-10T18:58:01.977Z</time></trkpt><trkpt lat="45.715542743535636" lon="9.246290840046965"><ele>272.7142857142857</ele><time>2026-04-10T18:58:03.977Z</time></trkpt><trkpt lat="45.71546766812383" lon="9.246266000361514"><ele>273.14285714285717</ele><time>2026-04-10T18:58:05.977Z</time></trkpt><trkpt lat="45.71540618298736" lon="9.246211384355032"><ele>273.5714285714286</ele><time>2026-04-10T18:58:07.977Z</time></trkpt><trkpt lat="45.71534519808353" lon="9.246164966755225"><ele>274.0</ele><time>2026-04-10T18:58:09.977Z</time></trkpt><trkpt lat="45.71528789591815" lon="9.246112021348344"><ele>273.16666666666663</ele><time>2026-04-10T18:58:11.977Z</time></trkpt><trkpt lat="45.71521355686144" lon="9.246040499633772"><ele>272.3333333333333</ele><time>2026-04-10T18:58:14.977Z</time></trkpt><trkpt lat="45.715135708543315" lon="9.24596847886722"><ele>271.5</ele><time>2026-04-10T18:58:17.977Z</time></trkpt><trkpt lat="45.715090839765686" lon="9.245897085206352"><ele>270.6666666666667</ele><time>2026-04-10T18:58:19.977Z</time></trkpt><trkpt lat="45.715051142470855" lon="9.245814486232465"><ele>269.83333333333337</ele><time>2026-04-10T18:58:21.977Z</time></trkpt><trkpt lat="45.714988261230985" lon="9.245742547846202"><ele>269.0</ele><time>2026-04-10T18:58:24.977Z</time></trkpt><trkpt lat="45.714908835004024" lon="9.245667449177295"><ele>269.0</ele><time>2026-04-10T18:58:27.976Z</time></trkpt><trkpt lat="45.71485214185666" lon="9.245628204337784"><ele>269.0</ele><time>2026-04-10T18:58:29.976Z</time></trkpt><trkpt lat="45.714797284528" lon="9.245582234665012"><ele>269.0</ele><time>2026-04-10T18:58:31.976Z</time></trkpt><trkpt lat="45.71471138880514" lon="9.245608364156727"><ele>269.0</ele><time>2026-04-10T18:58:34.976Z</time></trkpt><trkpt lat="45.71467432004673" lon="9.245695173049848"><ele>269.0</ele><time>2026-04-10T18:58:37.976Z</time></trkpt><trkpt lat="45.71463053058258" lon="9.245790059952215"><ele>269.0</ele><time>2026-04-10T18:58:39.976Z</time></trkpt><trkpt lat="45.714577849162495" lon="9.245899727996203"><ele>269.0</ele><time>2026-04-10T18:58:42.976Z</time></trkpt><trkpt lat="45.71453904937154" lon="9.246011560923256"><ele>269.0</ele><time>2026-04-10T18:58:45.976Z</time></trkpt><trkpt lat="45.714499191892244" lon="9.246117744993935"><ele>269.0</ele><time>2026-04-10T18:58:48.976Z</time></trkpt><trkpt lat="45.714474115703595" lon="9.246211351640353"><ele>269.0</ele><time>2026-04-10T18:58:51.976Z</time></trkpt><trkpt lat="45.71446213389672" lon="9.246320626659557"><ele>269.0</ele><time>2026-04-10T18:58:54.976Z</time></trkpt><trkpt lat="45.71444153451607" lon="9.246443142926708"><ele>269.0</ele><time>2026-04-10T18:58:57.976Z</time></trkpt><trkpt lat="45.7143907359644" lon="9.246550002827504"><ele>267.5</ele><time>2026-04-10T18:59:00.976Z</time></trkpt><trkpt lat="45.714309364535644" lon="9.246609786615137"><ele>266.0</ele><time>2026-04-10T18:59:03.976Z</time></trkpt><trkpt lat="45.71422198663657" lon="9.246656861365468"><ele>264.5</ele><time>2026-04-10T18:59:06.976Z</time></trkpt><trkpt lat="45.714141945917014" lon="9.246700847923162"><ele>263.0</ele><time>2026-04-10T18:59:09.976Z</time></trkpt><trkpt lat="45.71405786075051" lon="9.246735058392868"><ele>261.5</ele><time>2026-04-10T18:59:12.976Z</time></trkpt><trkpt lat="45.71397321586805" lon="9.246749111231713"><ele>260.0</ele><time>2026-04-10T18:59:15.975Z</time></trkpt><trkpt lat="45.713905418215134" lon="9.246775202426646"><ele>260.00000000000006</ele><time>2026-04-10T18:59:17.975Z</time></trkpt><trkpt lat="45.71384345653972" lon="9.246807512944834"><ele>260.0</ele><time>2026-04-10T18:59:19.975Z</time></trkpt><trkpt lat="45.713775039358026" lon="9.246826893045272"><ele>260.0</ele><time>2026-04-10T18:59:21.975Z</time></trkpt><trkpt lat="45.71370169324817" lon="9.246832237485568"><ele>260.0</ele><time>2026-04-10T18:59:23.975Z</time></trkpt><trkpt lat="45.713633025930825" lon="9.24685309171832"><ele>260.0</ele><time>2026-04-10T18:59:25.975Z</time></trkpt><trkpt lat="45.71355529923645" lon="9.246833137203934"><ele>260.00000000000006</ele><time>2026-04-10T18:59:28.975Z</time></trkpt><trkpt lat="45.71351012773385" lon="9.246751532688599"><ele>260.0</ele><time>2026-04-10T18:59:31.978Z</time></trkpt><trkpt lat="45.71345858737319" lon="9.24669194000189"><ele>259.83333333333337</ele><time>2026-04-10T18:59:34.978Z</time></trkpt><trkpt lat="45.713422062218" lon="9.2466078339074"><ele>259.6666666666667</ele><time>2026-04-10T18:59:37.978Z</time></trkpt><trkpt lat="45.71338782091937" lon="9.246520237459691"><ele>259.5</ele><time>2026-04-10T18:59:40.979Z</time></trkpt><trkpt lat="45.71334251493328" lon="9.246419610404146"><ele>259.3333333333333</ele><time>2026-04-10T18:59:43.978Z</time></trkpt><trkpt lat="45.713324565716825" lon="9.24629558442075"><ele>259.16666666666663</ele><time>2026-04-10T18:59:46.978Z</time></trkpt><trkpt lat="45.71333602242056" lon="9.2462006674078"><ele>259.0</ele><time>2026-04-10T18:59:48.978Z</time></trkpt><trkpt lat="45.713326424169985" lon="9.246076852502918"><ele>259.2857142857143</ele><time>2026-04-10T18:59:51.978Z</time></trkpt><trkpt lat="45.713308745195825" lon="9.245973732360923"><ele>259.57142857142856</ele><time>2026-04-10T18:59:53.978Z</time></trkpt><trkpt lat="45.71331341082926" lon="9.24584903141899"><ele>259.8571428571429</ele><time>2026-04-10T18:59:56.978Z</time></trkpt><trkpt lat="45.71330785444087" lon="9.245737943791113"><ele>260.1428571428571</ele><time>2026-04-10T18:59:59.978Z</time></trkpt><trkpt lat="45.71329261757668" lon="9.245643585314413"><ele>260.42857142857144</ele><time>2026-04-10T19:00:02.977Z</time></trkpt><trkpt lat="45.71329893487813" lon="9.245550613282944"><ele>260.7142857142857</ele><time>2026-04-10T19:00:04.977Z</time></trkpt><trkpt lat="45.71329088705474" lon="9.245445743921955"><ele>261.0</ele><time>2026-04-10T19:00:06.977Z</time></trkpt><trkpt lat="45.71330363049387" lon="9.24533474049114"><ele>261.2857142857143</ele><time>2026-04-10T19:00:09.977Z</time></trkpt><trkpt lat="45.71330520710499" lon="9.245242734290844"><ele>261.57142857142856</ele><time>2026-04-10T19:00:11.977Z</time></trkpt><trkpt lat="45.71332743276527" lon="9.245128073541123"><ele>261.85714285714283</ele><time>2026-04-10T19:00:14.977Z</time></trkpt><trkpt lat="45.71336603709335" lon="9.24504075793683"><ele>262.1428571428571</ele><time>2026-04-10T19:00:18.977Z</time></trkpt><trkpt lat="45.71343323319715" lon="9.24506319067281"><ele>262.4285714285714</ele><time>2026-04-10T19:00:21.977Z</time></trkpt><trkpt lat="45.71350245316556" lon="9.245063177812163"><ele>262.7142857142857</ele><time>2026-04-10T19:00:24.977Z</time></trkpt><trkpt lat="45.7135683972209" lon="9.245026082444426"><ele>263.0</ele><time>2026-04-10T19:01:09.976Z</time></trkpt><trkpt lat="45.71357627823985" lon="9.244876830102992"><ele>263.0</ele><time>2026-04-10T19:04:55.976Z</time></trkpt><trkpt lat="45.71352588790106" lon="9.244813157482708"><ele>263.0</ele><time>2026-04-10T19:05:06.975Z</time></trkpt><trkpt lat="45.71348695387868" lon="9.244730056474344"><ele>263.0</ele><time>2026-04-10T19:05:20.974Z</time></trkpt><trkpt lat="45.71343021865271" lon="9.244688843829294"><ele>263.0</ele><time>2026-04-10T19:05:26.974Z</time></trkpt><trkpt lat="45.71334076254513" lon="9.244710688148327"><ele>263.0</ele><time>2026-04-10T19:06:31.976Z</time></trkpt><trkpt lat="45.713286184293075" lon="9.244764478860198"><ele>263.0</ele><time>2026-04-10T19:07:45.974Z</time></trkpt><trkpt lat="45.71325271407788" lon="9.244857273486417"><ele>263.0</ele><time>2026-04-10T19:07:53.977Z</time></trkpt><trkpt lat="45.71322948743036" lon="9.244941349838765"><ele>263.0</ele><time>2026-04-10T19:08:01.977Z</time></trkpt><trkpt lat="45.71322610475055" lon="9.245035372278679"><ele>263.0</ele><time>2026-04-10T19:08:09.977Z</time></trkpt><trkpt lat="45.71323764923923" lon="9.245124806283934"><ele>263.0</ele><time>2026-04-10T19:08:17.977Z</time></trkpt><trkpt lat="45.71320356887178" lon="9.245207790828365"><ele>263.0</ele><time>2026-04-10T19:08:25.976Z</time></trkpt><trkpt lat="45.71320056259121" lon="9.245305224551071"><ele>263.0</ele><time>2026-04-10T19:08:32.976Z</time></trkpt><trkpt lat="45.713179585876865" lon="9.245396392045485"><ele>263.0</ele><time>2026-04-10T19:08:40.976Z</time></trkpt><trkpt lat="45.713171656482366" lon="9.245490332683055"><ele>263.0</ele><time>2026-04-10T19:08:47.976Z</time></trkpt><trkpt lat="45.71316271023535" lon="9.245590740920367"><ele>262.7142857142857</ele><time>2026-04-10T19:08:58.976Z</time></trkpt><trkpt lat="45.71315711552492" lon="9.245690339203826"><ele>262.4285714285714</ele><time>2026-04-10T19:09:05.976Z</time></trkpt><trkpt lat="45.713148572592765" lon="9.245785876172983"><ele>262.1428571428571</ele><time>2026-04-10T19:09:11.976Z</time></trkpt><trkpt lat="45.71313897884086" lon="9.24589070500982"><ele>261.85714285714283</ele><time>2026-04-10T19:09:17.975Z</time></trkpt><trkpt lat="45.71312139568996" lon="9.245981483075933"><ele>261.57142857142856</ele><time>2026-04-10T19:09:24.975Z</time></trkpt><trkpt lat="45.713121529887836" lon="9.246073229829383"><ele>261.2857142857143</ele><time>2026-04-10T19:09:29.975Z</time></trkpt><trkpt lat="45.71311205824016" lon="9.246174819238759"><ele>261.0</ele><time>2026-04-10T19:09:35.975Z</time></trkpt><trkpt lat="45.71309693559588" lon="9.246269179799386"><ele>261.0</ele><time>2026-04-10T19:09:41.975Z</time></trkpt><trkpt lat="45.713089564074636" lon="9.246362860381433"><ele>261.0</ele><time>2026-04-10T19:09:48.975Z</time></trkpt><trkpt lat="45.71309295136232" lon="9.246462154273715"><ele>261.0</ele><time>2026-04-10T19:09:55.975Z</time></trkpt><trkpt lat="45.71307460853224" lon="9.246548611992752"><ele>261.0</ele><time>2026-04-10T19:10:15.978Z</time></trkpt><trkpt lat="45.71303335824037" lon="9.24661942305658"><ele>261.0</ele><time>2026-04-10T19:10:23.977Z</time></trkpt><trkpt lat="45.71296966204196" lon="9.246611867176014"><ele>261.0</ele><time>2026-04-10T19:10:30.977Z</time></trkpt><trkpt lat="45.71290805552688" lon="9.246586042728762"><ele>261.0</ele><time>2026-04-10T19:10:38.977Z</time></trkpt><trkpt lat="45.712838338566726" lon="9.246592828689918"><ele>261.0</ele><time>2026-04-10T19:10:45.977Z</time></trkpt><trkpt lat="45.712770090292594" lon="9.24658208654178"><ele>261.0</ele><time>2026-04-10T19:10:54.977Z</time></trkpt><trkpt lat="45.712833293116645" lon="9.24659910353532"><ele>261.0</ele><time>2026-04-10T19:17:05.977Z</time></trkpt><trkpt lat="45.712911600144125" lon="9.24659506107434"><ele>261.0</ele><time>2026-04-10T19:17:11.977Z</time></trkpt><trkpt lat="45.71298219537367" lon="9.246599183132716"><ele>261.0</ele><time>2026-04-10T19:17:17.977Z</time></trkpt><trkpt lat="45.71303760182684" lon="9.24655589162533"><ele>261.0</ele><time>2026-04-10T19:17:24.977Z</time></trkpt><trkpt lat="45.71307420158423" lon="9.246471737410085"><ele>261.0</ele><time>2026-04-10T19:17:30.976Z</time></trkpt><trkpt lat="45.713104636788344" lon="9.246380269399303"><ele>261.0</ele><time>2026-04-10T19:17:38.976Z</time></trkpt><trkpt lat="45.713113011360385" lon="9.2462860567339"><ele>261.0</ele><time>2026-04-10T19:17:43.976Z</time></trkpt><trkpt lat="45.713123995346464" lon="9.246190577847639"><ele>261.0</ele><time>2026-04-10T19:17:48.976Z</time></trkpt><trkpt lat="45.71314613073404" lon="9.246096058844904"><ele>261.0</ele><time>2026-04-10T19:17:55.976Z</time></trkpt><trkpt lat="45.71314656747507" lon="9.245989541873847"><ele>261.0</ele><time>2026-04-10T19:18:00.976Z</time></trkpt><trkpt lat="45.7131505573588" lon="9.245879269659618"><ele>261.0</ele><time>2026-04-10T19:18:06.976Z</time></trkpt><trkpt lat="45.71315400201389" lon="9.245779317612206"><ele>261.0</ele><time>2026-04-10T19:18:11.976Z</time></trkpt><trkpt lat="45.71315798169369" lon="9.245684040976162"><ele>261.2857142857143</ele><time>2026-04-10T19:18:16.975Z</time></trkpt><trkpt lat="45.71317165825389" lon="9.245569758234792"><ele>261.57142857142856</ele><time>2026-04-10T19:18:21.975Z</time></trkpt><trkpt lat="45.71318954169684" lon="9.245482020079892"><ele>261.85714285714283</ele><time>2026-04-10T19:18:25.979Z</time></trkpt><trkpt lat="45.71321697243765" lon="9.245400552132265"><ele>262.1428571428571</ele><time>2026-04-10T19:18:29.979Z</time></trkpt><trkpt lat="45.71323330358047" lon="9.245290766111573"><ele>262.4285714285714</ele><time>2026-04-10T19:18:34.979Z</time></trkpt><trkpt lat="45.7132509897063" lon="9.245188734733388"><ele>262.7142857142857</ele><time>2026-04-10T19:18:39.979Z</time></trkpt><trkpt lat="45.71327146761293" lon="9.245090115386503"><ele>263.0</ele><time>2026-04-10T19:18:44.979Z</time></trkpt><trkpt lat="45.71329081178591" lon="9.24498643674964"><ele>263.0</ele><time>2026-04-10T19:18:49.979Z</time></trkpt><trkpt lat="45.71330133022266" lon="9.244879720570532"><ele>263.0</ele><time>2026-04-10T19:18:54.979Z</time></trkpt><trkpt lat="45.71333306746237" lon="9.244782579918258"><ele>263.0</ele><time>2026-04-10T19:19:01.979Z</time></trkpt><trkpt lat="45.71340225066679" lon="9.244777493572231"><ele>263.0</ele><time>2026-04-10T19:19:05.978Z</time></trkpt><trkpt lat="45.713470163724914" lon="9.24482262609666"><ele>263.0</ele><time>2026-04-10T19:19:10.978Z</time></trkpt><trkpt lat="45.71352123526894" lon="9.244888123822582"><ele>263.0</ele><time>2026-04-10T19:19:16.978Z</time></trkpt><trkpt lat="45.71353119571132" lon="9.24497814773633"><ele>263.0</ele><time>2026-04-10T19:19:28.978Z</time></trkpt><trkpt lat="45.71349732090123" lon="9.24486871146903"><ele>263.0</ele><time>2026-04-10T19:19:46.978Z</time></trkpt><trkpt lat="45.71343661144885" lon="9.244805249756492"><ele>263.0</ele><time>2026-04-10T19:23:54.971Z</time></trkpt><trkpt lat="45.7133753365267" lon="9.24477029066282"><ele>263.0</ele><time>2026-04-10T19:24:02.97Z</time></trkpt><trkpt lat="45.71331635377651" lon="9.24480951204796"><ele>263.0</ele><time>2026-04-10T19:24:08.97Z</time></trkpt><trkpt lat="45.713278601885136" lon="9.244882983046624"><ele>263.0</ele><time>2026-04-10T19:24:14.97Z</time></trkpt><trkpt lat="45.71326164759323" lon="9.244974102822896"><ele>263.0</ele><time>2026-04-10T19:24:19.97Z</time></trkpt><trkpt lat="45.71325174452073" lon="9.245075492202709"><ele>263.0</ele><time>2026-04-10T19:24:25.97Z</time></trkpt><trkpt lat="45.713228827395845" lon="9.245181521575164"><ele>263.0</ele><time>2026-04-10T19:24:31.97Z</time></trkpt><trkpt lat="45.713215279201" lon="9.245287471264499"><ele>263.0</ele><time>2026-04-10T19:24:37.97Z</time></trkpt><trkpt lat="45.713195607610295" lon="9.245392136434385"><ele>263.0</ele><time>2026-04-10T19:24:43.972Z</time></trkpt><trkpt lat="45.713175150468025" lon="9.245479272287879"><ele>263.0</ele><time>2026-04-10T19:24:48.972Z</time></trkpt><trkpt lat="45.713163452433555" lon="9.245570272625079"><ele>263.0</ele><time>2026-04-10T19:24:53.972Z</time></trkpt><trkpt lat="45.71315789275767" lon="9.245670757775502"><ele>263.0</ele><time>2026-04-10T19:24:58.972Z</time></trkpt><trkpt lat="45.713149756397165" lon="9.245762500121717"><ele>263.0</ele><time>2026-04-10T19:25:04.972Z</time></trkpt><trkpt lat="45.71313643773048" lon="9.245857064548277"><ele>262.7142857142857</ele><time>2026-04-10T19:25:10.972Z</time></trkpt><trkpt lat="45.71313825984925" lon="9.245957105576007"><ele>262.4285714285714</ele><time>2026-04-10T19:25:16.972Z</time></trkpt><trkpt lat="45.71312770219976" lon="9.246052945858903"><ele>262.1428571428571</ele><time>2026-04-10T19:25:21.972Z</time></trkpt><trkpt lat="45.71311108027134" lon="9.246160529113608"><ele>261.85714285714283</ele><time>2026-04-10T19:25:27.971Z</time></trkpt><trkpt lat="45.7130977039452" lon="9.246254661053989"><ele>261.57142857142856</ele><time>2026-04-10T19:25:34.971Z</time></trkpt><trkpt lat="45.71309086795018" lon="9.246346605824392"><ele>261.2857142857143</ele><time>2026-04-10T19:25:39.971Z</time></trkpt><trkpt lat="45.713067374633944" lon="9.246439285934558"><ele>261.0</ele><time>2026-04-10T19:25:45.971Z</time></trkpt><trkpt lat="45.713044081690725" lon="9.246531458368947"><ele>260.7142857142857</ele><time>2026-04-10T19:25:50.971Z</time></trkpt><trkpt lat="45.71298939535314" lon="9.246588011480355"><ele>260.42857142857144</ele><time>2026-04-10T19:25:57.971Z</time></trkpt><trkpt lat="45.71292432652418" lon="9.246602864819272"><ele>260.1428571428571</ele><time>2026-04-10T19:26:02.971Z</time></trkpt><trkpt lat="45.71285836951045" lon="9.246596202548243"><ele>259.8571428571429</ele><time>2026-04-10T19:26:07.97Z</time></trkpt><trkpt lat="45.712792241955356" lon="9.246575574773813"><ele>259.57142857142856</ele><time>2026-04-10T19:26:14.97Z</time></trkpt><trkpt lat="45.71286825750996" lon="9.24661359433162"><ele>259.2857142857143</ele><time>2026-04-10T19:28:50.97Z</time></trkpt><trkpt lat="45.71294039558715" lon="9.246628695545237"><ele>259.0</ele><time>2026-04-10T19:28:55.972Z</time></trkpt><trkpt lat="45.71301625175504" lon="9.246618248181708"><ele>259.0</ele><time>2026-04-10T19:29:02.972Z</time></trkpt><trkpt lat="45.713056730100384" lon="9.24652416790622"><ele>259.0</ele><time>2026-04-10T19:29:08.972Z</time></trkpt><trkpt lat="45.71308069078051" lon="9.246436763413325"><ele>259.0</ele><time>2026-04-10T19:29:14.972Z</time></trkpt><trkpt lat="45.71310444829069" lon="9.246336690589814"><ele>259.0</ele><time>2026-04-10T19:29:20.972Z</time></trkpt><trkpt lat="45.713116530063246" lon="9.246240408055025"><ele>259.0</ele><time>2026-04-10T19:29:25.972Z</time></trkpt><trkpt lat="45.71313716250654" lon="9.246148415245342"><ele>259.0</ele><time>2026-04-10T19:29:30.972Z</time></trkpt><trkpt lat="45.713146978386526" lon="9.246054855863795"><ele>259.0</ele><time>2026-04-10T19:29:35.972Z</time></trkpt><trkpt lat="45.713153081170105" lon="9.245960791084016"><ele>259.2857142857143</ele><time>2026-04-10T19:29:40.972Z</time></trkpt><trkpt lat="45.71315211259238" lon="9.245865768324498"><ele>259.57142857142856</ele><time>2026-04-10T19:29:46.972Z</time></trkpt><trkpt lat="45.71317626390762" lon="9.245755284134336"><ele>259.8571428571429</ele><time>2026-04-10T19:29:52.971Z</time></trkpt><trkpt lat="45.71318323831775" lon="9.245660051268906"><ele>260.1428571428571</ele><time>2026-04-10T19:29:58.971Z</time></trkpt><trkpt lat="45.71319241295597" lon="9.2455589113992"><ele>260.42857142857144</ele><time>2026-04-10T19:30:04.971Z</time></trkpt><trkpt lat="45.71319238194219" lon="9.24545384044463"><ele>260.7142857142857</ele><time>2026-04-10T19:30:09.971Z</time></trkpt><trkpt lat="45.71321547785864" lon="9.245354551226542"><ele>261.0</ele><time>2026-04-10T19:30:14.971Z</time></trkpt><trkpt lat="45.71322614792207" lon="9.24524532015787"><ele>263.0</ele><time>2026-04-10T19:30:20.971Z</time></trkpt><trkpt lat="45.71324822532764" lon="9.24515543621228"><ele>263.0</ele><time>2026-04-10T19:30:26.971Z</time></trkpt><trkpt lat="45.71327205339269" lon="9.24505449059622"><ele>263.0</ele><time>2026-04-10T19:30:32.97Z</time></trkpt></trkseg></trk></gpx>